Home > Products > Valid Products > TAF

000
FTUS46 KLOX 052001 AAB
TAFPRB
TAF AMD
KPRB 052001Z 0520/0618 21012G22KT P6SM VCSH BKN025 OVC040
     FM052200 20014G25KT P6SM -SHRA VCTS SCT025 BKN040CB
     FM060800 20007KT P6SM -SHRA VCTS SCT012 BKN025CB=



000
FTUS46 KLOX 051904 AAA
TAFPRB
TAF AMD
KPRB 051904Z 0519/0618 23011KT P6SM SCT025 OVC040
     FM051930 23013KT P6SM VCSH BKN025 OVC040
     FM052200 20014G25KT P6SM -SHRA VCTS SCT025 BKN040CB
     FM060800 20007KT P6SM -SHRA VCTS SCT012 BKN025CB=



000
FTUS46 KLOX 051904 AAA
TAFPRB
TAF AMD
KPRB 051904Z 0519/0618 23011KT P6SM SCT025 OVC040
     FM051930 23013KT P6SM VCSH BKN025 OVC040
     FM052200 20014G25KT P6SM -SHRA VCTS SCT025 BKN040CB
     FM060800 20007KT P6SM -SHRA VCTS SCT012 BKN025CB=



000
FTUS46 KLOX 051742
TAFSBP
TAF
KSBP 051742Z 0518/0618 VRB05KT P6SM SCT025 BKN060
     FM051930 15005KT P6SM VCSH BKN025 OVC040
     FM052200 23010KT P6SM -SHRA VCTS SCT025 OVC040CB
     FM060900 23006KT P6SM -SHRA VCTS SCT012 BKN025CB=



000
FTUS46 KLOX 051742
TAFSMX
TAF
KSMX 051742Z 0518/0618 14005KT P6SM SCT025 BKN060
     FM051930 26005KT P6SM VCSH BKN025 OVC040
     FM052200 25011KT P6SM -SHRA VCTS SCT025 OVC040CB
     FM060900 25005KT P6SM -SHRA VCTS SCT012 BKN025CB=



000
FTUS46 KLOX 051742
TAFPRB
TAF
KPRB 051742Z 0518/0618 23005KT P6SM SCT025 OVC040
     FM051930 19008KT P6SM VCSH BKN025 OVC040
     FM052200 20014G25KT P6SM -SHRA VCTS SCT025 BKN040CB
     FM060800 20007KT P6SM -SHRA VCTS SCT012 BKN025CB=



000
FTUS46 KLOX 051742
TAFSBA
TAF
KSBA 051742Z 0518/0618 17006KT P6SM SCT030 BKN100
     FM052000 16010KT P6SM VCSH SCT007 SCT020 OVC040
     FM052300 23009KT P6SM -SHRA VCTS SCT025 OVC040CB
     FM061000 VRB03KT P6SM -SHRA VCTS SCT012 OVC025CB=



000
FTUS46 KLOX 051736
TAFPMD
TAF
KPMD 051736Z 0518/0618 23015G25KT P6SM SCT060 BKN100
     FM052100 23023G33KT P6SM VCTS SCT025 BKN050CB
     FM061000 24014G22KT P6SM SCT050 SCT080=



000
FTUS46 KLOX 051736
TAFVNY
TAF
KVNY 051736Z 0518/0618 19006KT P6SM SCT025 BKN050
     FM052000 18006KT P6SM VCSH BKN025 OVC050
     FM052300 18012KT P6SM -SHRA VCTS SCT025 BKN045CB
     FM061100 18005KT P6SM -SHRA VCTS SCT012 BKN025CB=



000
FTUS46 KLOX 051736
TAFBUR
TAF
KBUR 051736Z 0518/0618 VRB05KT P6SM SCT025 OVC050
     FM052000 17006KT P6SM VCSH BKN025 OVC050
     FM052300 17012KT P6SM -SHRA VCTS SCT025 BKN045CB
     FM061100 17005KT P6SM -SHRA VCTS SCT012 BKN025CB=



000
FTUS46 KLOX 051736
TAFLAX
TAF
KLAX 051736Z 0518/0624 25010KT P6SM VCSH BKN035 BKN060
     FM052300 25010KT P6SM -SHRA VCTS SCT025 BKN045CB
     FM061100 12006KT P6SM -SHRA VCTS SCT012 BKN025CB
     FM061800 25007KT P6SM -SHRA VCTS SCT012 OVC025CB=



000
FTUS46 KLOX 051736
TAFWJF
TAF
KWJF 051736Z 0518/0618 24015G25KT P6SM SCT060 BKN100
     FM052000 22023G33KT P6SM VCTS SCT025 BKN050CB
     FM061100 23014G22KT P6SM SCT050 SCT080=



000
FTUS46 KLOX 051736
TAFLGB
TAF
KLGB 051736Z 0518/0618 22006KT P6SM VCSH SCT025 OVC050
     FM052300 20008KT P6SM -SHRA VCTS SCT025 BKN045CB
     FM061100 13005KT P6SM -SHRA VCTS SCT012 BKN025CB=



000
FTUS46 KLOX 051736
TAFBUR
TAF
KBUR 051736Z 0518/0618 VRB05KT P6SM SCT025 OVC050
     FM052000 17006KT P6SM VCSH BKN025 OVC050
     FM052300 17012KT P6SM -SHRA VCTS SCT025 BKN045CB
     FM061100 17005KT P6SM -SHRA VCTS SCT012 BKN025CB=



000
FTUS46 KLOX 051736
TAFLAX
TAF
KLAX 051736Z 0518/0624 25010KT P6SM VCSH BKN035 BKN060
     FM052300 25010KT P6SM -SHRA VCTS SCT025 BKN045CB
     FM061100 12006KT P6SM -SHRA VCTS SCT012 BKN025CB
     FM061800 25007KT P6SM -SHRA VCTS SCT012 OVC025CB=



000
FTUS46 KLOX 051736
TAFLGB
TAF
KLGB 051736Z 0518/0618 22006KT P6SM VCSH SCT025 OVC050
     FM052300 20008KT P6SM -SHRA VCTS SCT025 BKN045CB
     FM061100 13005KT P6SM -SHRA VCTS SCT012 BKN025CB=



000
FTUS46 KLOX 051736
TAFPMD
TAF
KPMD 051736Z 0518/0618 23015G25KT P6SM SCT060 BKN100
     FM052100 23023G33KT P6SM VCTS SCT025 BKN050CB
     FM061000 24014G22KT P6SM SCT050 SCT080=



000
FTUS46 KLOX 051736
TAFWJF
TAF
KWJF 051736Z 0518/0618 24015G25KT P6SM SCT060 BKN100
     FM052000 22023G33KT P6SM VCTS SCT025 BKN050CB
     FM061100 23014G22KT P6SM SCT050 SCT080=



000
FTUS46 KLOX 051736
TAFVNY
TAF
KVNY 051736Z 0518/0618 19006KT P6SM SCT025 BKN050
     FM052000 18006KT P6SM VCSH BKN025 OVC050
     FM052300 18012KT P6SM -SHRA VCTS SCT025 BKN045CB
     FM061100 18005KT P6SM -SHRA VCTS SCT012 BKN025CB=



000
FTUS46 KLOX 051705 AAD
TAFLGB
TAF AMD
KLGB 051705Z 0517/0612 22006KT P6SM SCT025 OVC050
     FM051900 20008KT P6SM -SHRA BKN012 OVC025
     FM060100 23008KT P6SM VCSH BKN012 OVC025
     FM060800 13004KT P6SM VCSH BKN012 OVC025=



000
FTUS46 KLOX 051705 AAD
TAFLGB
TAF AMD
KLGB 051705Z 0517/0612 22006KT P6SM SCT025 OVC050
     FM051900 20008KT P6SM -SHRA BKN012 OVC025
     FM060100 23008KT P6SM VCSH BKN012 OVC025
     FM060800 13004KT P6SM VCSH BKN012 OVC025=



000
FTUS46 KLOX 051704 AAC
TAFLAX
TAF AMD
KLAX 051704Z 0517/0618 25006KT P6SM BKN035 BKN060
     FM051900 23010KT P6SM -SHRA BKN012 OVC025
     FM060100 26010KT P6SM VCSH BKN012 OVC025
     FM060700 12003KT P6SM VCSH BKN012 OVC025=



000
FTUS46 KLOX 051704 AAC
TAFLAX
TAF AMD
KLAX 051704Z 0517/0618 25006KT P6SM BKN035 BKN060
     FM051900 23010KT P6SM -SHRA BKN012 OVC025
     FM060100 26010KT P6SM VCSH BKN012 OVC025
     FM060700 12003KT P6SM VCSH BKN012 OVC025=



000
FTUS46 KLOX 051606 AAA
TAFWJF
TAF AMD
KWJF 051606Z 0516/0612 24015G25KT P6SM SCT060 BKN100
     FM052000 22023G31KT P6SM VCTS SCT025CB BKN050
     FM060200 23014G22KT P6SM SCT050 SCT080=



000
FTUS46 KLOX 051605 AAA
TAFPMD
TAF AMD
KPMD 051605Z 0516/0612 23015G25KT P6SM SCT060 BKN100
     FM052100 23023G31KT P6SM VCTS SCT025CB BKN050
     FM060200 24014G22KT P6SM SCT050 SCT080=



000
FTUS46 KLOX 051605 AAB
TAFBUR
TAF AMD
KBUR 051605Z 0516/0612 15006KT P6SM SCT025 OVC040
     FM051800 14008KT P6SM VCSH BKN025 OVC040
     FM052000 16010KT P6SM -SHRA BKN012 OVC025
     FM052100 18012G18KT P6SM -SHRA SCT007 BKN012 OVC025
     FM060300 17005KT P6SM VCSH BKN012 OVC025=



000
FTUS46 KLOX 051605 AAA
TAFPMD
TAF AMD
KPMD 051605Z 0516/0612 23015G25KT P6SM SCT060 BKN100
     FM052100 23023G31KT P6SM VCTS SCT025CB BKN050
     FM060200 24014G22KT P6SM SCT050 SCT080=



000
FTUS46 KLOX 051604 AAB
TAFVNY
TAF AMD
KVNY 051604Z 0516/0612 VRB04KT P6SM SCT025 OVC050
     FM051800 12007KT P6SM VCSH BKN025 OVC040
     FM052000 14010KT P6SM -SHRA BKN012 OVC025
     FM052300 18012G18KT P6SM -SHRA SCT007 BKN012 OVC025
     FM060300 VRB04KT P6SM VCSH BKN012 OVC025=



000
FTUS46 KLOX 051603 AAC
TAFSBA
TAF AMD
KSBA 051603Z 0516/0612 VRB05KT P6SM FEW006 BKN060
     FM051800 11005KT P6SM VCSH BKN025 OVC040
     FM052000 16006KT P6SM -SHRA SCT007 BKN012 OVC025
     FM052200 23008KT P6SM VCSH BKN012 OVC025
     FM060200 VRB03KT P6SM VCSH BKN012 OVC025=



000
FTUS46 KLOX 051603 AAC
TAFSMX
TAF AMD
KSMX 051603Z 0516/0612 14005KT P6SM SCT025 BKN100
     FM051800 15005KT P6SM VCSH BKN025 OVC040
     FM052000 VRB05KT P6SM -SHRA BKN012 OVC025
     FM052300 26010KT P6SM -SHRA SCT007 BKN012 OVC025
     FM060200 29007KT P6SM VCSH BKN012 OVC025
     FM060400 VRB03KT P6SM VCSH BKN012 OVC025=



000
FTUS46 KLOX 051603 AAC
TAFSBA
TAF AMD
KSBA 051603Z 0516/0612 VRB05KT P6SM FEW006 BKN060
     FM051800 11005KT P6SM VCSH BKN025 OVC040
     FM052000 16006KT P6SM -SHRA SCT007 BKN012 OVC025
     FM052200 23008KT P6SM VCSH BKN012 OVC025
     FM060200 VRB03KT P6SM VCSH BKN012 OVC025=



000
FTUS46 KLOX 051603 AAC
TAFSMX
TAF AMD
KSMX 051603Z 0516/0612 14005KT P6SM SCT025 BKN100
     FM051800 15005KT P6SM VCSH BKN025 OVC040
     FM052000 VRB05KT P6SM -SHRA BKN012 OVC025
     FM052300 26010KT P6SM -SHRA SCT007 BKN012 OVC025
     FM060200 29007KT P6SM VCSH BKN012 OVC025
     FM060400 VRB03KT P6SM VCSH BKN012 OVC025=



000
FTUS46 KLOX 051602 AAC
TAFSBP
TAF AMD
KSBP 051602Z 0516/0612 VRB05KT P6SM SCT025 BKN040
     FM051800 15005KT P6SM VCSH BKN025 OVC040
     FM052000 16005KT P6SM -SHRA BKN012 OVC025
     FM052300 23010KT P6SM -SHRA SCT007 BKN012 OVC025
     FM060200 29007KT P6SM VCSH BKN012 OVC025
     FM060400 VRB03KT P6SM VCSH BKN012 OVC025=



000
FTUS46 KLOX 051601 AAC
TAFPRB
TAF AMD
KPRB 051601Z 0516/0612 19005KT P6SM SCT025 OVC040
     FM051800 19008KT P6SM VCSH BKN025 OVC040
     FM052000 20010KT P6SM -SHRA SCT012 BKN025 OVC040
     FM052300 20014G22KT P6SM -SHRA BKN025 OVC040
     FM060200 20008KT P6SM VCSH BKN025 OVC040=



000
FTUS46 KLOX 051601 AAC
TAFPRB
TAF AMD
KPRB 051601Z 0516/0612 19005KT P6SM SCT025 OVC040
     FM051800 19008KT P6SM VCSH BKN025 OVC040
     FM052000 20010KT P6SM -SHRA SCT012 BKN025 OVC040
     FM052300 20014G22KT P6SM -SHRA BKN025 OVC040
     FM060200 20008KT P6SM VCSH BKN025 OVC040=



000
FTUS46 KLOX 051502 AAA
TAFVNY
TAF AMD
KVNY 051502Z 0515/0612 VRB04KT P6SM SCT025 OVC050
     FM051600 12007KT P6SM VCSH BKN025 OVC040
     FM051800 14010KT P6SM -SHRA BKN012 OVC025
     FM052100 18012G18KT P6SM -SHRA SCT007 BKN012 OVC025
     FM060300 VRB04KT P6SM VCSH BKN012 OVC025=



000
FTUS46 KLOX 051502 AAA
TAFVNY
TAF AMD
KVNY 051502Z 0515/0612 VRB04KT P6SM SCT025 OVC050
     FM051600 12007KT P6SM VCSH BKN025 OVC040
     FM051800 14010KT P6SM -SHRA BKN012 OVC025
     FM052100 18012G18KT P6SM -SHRA SCT007 BKN012 OVC025
     FM060300 VRB04KT P6SM VCSH BKN012 OVC025=



000
FTUS46 KLOX 051501 AAA
TAFBUR
TAF AMD
KBUR 051501Z 0515/0612 15006KT P6SM SCT025 OVC040
     FM051700 14008KT P6SM VCSH BKN025 OVC040
     FM051900 16010KT P6SM -SHRA BKN012 OVC025
     FM052100 18012G18KT P6SM -SHRA SCT007 BKN012 OVC025
     FM060300 17005KT P6SM VCSH BKN012 OVC025=



000
FTUS46 KLOX 051500 AAC
TAFLGB
TAF AMD
KLGB 051500Z 0515/0612 VRB05KT P6SM SCT025 OVC050
     FM051700 17006KT P6SM VCSH BKN017 OVC035
     FM051900 20008KT P6SM -SHRA BKN012 OVC025
     FM060100 23008KT P6SM VCSH BKN012 OVC025
     FM060800 13004KT P6SM VCSH BKN012 OVC025=



000
FTUS46 KLOX 051500 AAC
TAFLGB
TAF AMD
KLGB 051500Z 0515/0612 VRB05KT P6SM SCT025 OVC050
     FM051700 17006KT P6SM VCSH BKN017 OVC035
     FM051900 20008KT P6SM -SHRA BKN012 OVC025
     FM060100 23008KT P6SM VCSH BKN012 OVC025
     FM060800 13004KT P6SM VCSH BKN012 OVC025=



000
FTUS46 KLOX 051459 AAB
TAFLAX
TAF AMD
KLAX 051459Z 0515/0618 VRB05KT P6SM SCT015 OVC050
     FM051700 VRB05KT P6SM VCSH BKN017 OVC040
     FM051900 23010KT P6SM -SHRA BKN012 OVC025
     FM060100 26010KT P6SM VCSH BKN012 OVC025
     FM060700 12003KT P6SM VCSH BKN012 OVC025=



000
FTUS46 KLOX 051459 AAB
TAFLAX
TAF AMD
KLAX 051459Z 0515/0618 VRB05KT P6SM SCT015 OVC050
     FM051700 VRB05KT P6SM VCSH BKN017 OVC040
     FM051900 23010KT P6SM -SHRA BKN012 OVC025
     FM060100 26010KT P6SM VCSH BKN012 OVC025
     FM060700 12003KT P6SM VCSH BKN012 OVC025=



000
FTUS46 KLOX 051434 AAB
TAFSBA
TAF AMD
KSBA 051434Z 0515/0612 VRB05KT P6SM FEW006 BKN060
     FM051600 11005KT P6SM VCSH BKN025 OVC040
     FM051800 16006KT P6SM -SHRA SCT007 BKN012 OVC025
     FM052200 23008KT P6SM VCSH BKN012 OVC025
     FM060200 VRB03KT P6SM VCSH BKN012 OVC025=



000
FTUS46 KLOX 051434 AAB
TAFSBA
TAF AMD
KSBA 051434Z 0515/0612 VRB05KT P6SM FEW006 BKN060
     FM051600 11005KT P6SM VCSH BKN025 OVC040
     FM051800 16006KT P6SM -SHRA SCT007 BKN012 OVC025
     FM052200 23008KT P6SM VCSH BKN012 OVC025
     FM060200 VRB03KT P6SM VCSH BKN012 OVC025=



000
FTUS46 KLOX 051433 AAB
TAFPRB
TAF AMD
KPRB 051433Z 0515/0612 19005KT P6SM SCT025 OVC040
     FM051600 19008KT P6SM VCSH BKN025 OVC040
     FM051800 20010KT P6SM -SHRA SCT012 BKN025 OVC040
     FM052100 20014G22KT P6SM -SHRA BKN025 OVC040
     FM060200 20008KT P6SM VCSH BKN025 OVC040=



000
FTUS46 KLOX 051433 AAB
TAFSBP
TAF AMD
KSBP 051433Z 0515/0612 VRB05KT P6SM SCT025 BKN040
     FM051600 15004KT P6SM VCSH BKN025 OVC040
     FM051800 16005KT P6SM -SHRA BKN012 OVC025
     FM052200 23010KT P6SM -SHRA SCT007 BKN012 OVC025
     FM060200 29007KT P6SM VCSH BKN012 OVC025
     FM060400 VRB03KT P6SM VCSH BKN012 OVC025=



000
FTUS46 KLOX 051433 AAB
TAFPRB
TAF AMD
KPRB 051433Z 0515/0612 19005KT P6SM SCT025 OVC040
     FM051600 19008KT P6SM VCSH BKN025 OVC040
     FM051800 20010KT P6SM -SHRA SCT012 BKN025 OVC040
     FM052100 20014G22KT P6SM -SHRA BKN025 OVC040
     FM060200 20008KT P6SM VCSH BKN025 OVC040=



000
FTUS46 KLOX 051433 AAB
TAFSBP
TAF AMD
KSBP 051433Z 0515/0612 VRB05KT P6SM SCT025 BKN040
     FM051600 15004KT P6SM VCSH BKN025 OVC040
     FM051800 16005KT P6SM -SHRA BKN012 OVC025
     FM052200 23010KT P6SM -SHRA SCT007 BKN012 OVC025
     FM060200 29007KT P6SM VCSH BKN012 OVC025
     FM060400 VRB03KT P6SM VCSH BKN012 OVC025=



000
FTUS46 KLOX 051431 AAB
TAFLGB
TAF AMD
KLGB 051431Z 0515/0612 VRB05KT P6SM SCT025 OVC050
     FM051600 17006KT P6SM VCSH BKN017 OVC035
     FM051800 20008KT P6SM -SHRA BKN012 OVC025
     FM060100 23008KT P6SM VCSH BKN012 OVC025
     FM060800 13004KT P6SM VCSH BKN012 OVC025=



000
FTUS46 KLOX 051402 AAB
TAFSMX
TAF AMD
KSMX 051402Z 0514/0612 14004KT P6SM SCT025 BKN100
     FM051600 15005KT P6SM VCSH BKN025 OVC040
     FM051800 VRB03KT P6SM -SHRA BKN012 OVC025
     FM052200 26010KT P6SM -SHRA SCT007 BKN012 OVC025
     FM060200 29007KT P6SM VCSH BKN012 OVC025
     FM060400 VRB03KT P6SM VCSH BKN012 OVC025=



000
FTUS46 KLOX 051402 AAC
TAFSMX
TAF AMD
KSMX 051402Z 0514/0612 14004KT P6SM SCT025 BKN100
     FM051600 15005KT P6SM VCSH BKN025 OVC040
     FM051800 VRB03KT P6SM -SHRA BKN012 OVC025
     FM052200 26010KT P6SM -SHRA SCT007 BKN012 OVC025
     FM060200 29007KT P6SM VCSH BKN012 OVC025
     FM060400 VRB03KT P6SM VCSH BKN012 OVC025=



000
FTUS46 KLOX 051311 AAA
TAFSBP
TAF AMD
KSBP 051311Z 0513/0612 VRB03KT P6SM SCT025 BKN040
     FM051430 15004KT P6SM VCSH BKN025 OVC040
     FM051600 16005KT P6SM -SHRA BKN012 OVC025
     FM052000 23010KT P6SM -SHRA SCT007 BKN012 OVC025
     FM060200 29007KT P6SM VCSH BKN012 OVC025
     FM060400 VRB03KT P6SM VCSH BKN012 OVC025=



000
FTUS46 KLOX 051311 AAA
TAFSMX
TAF AMD
KSMX 051311Z 0513/0612 14004KT P6SM SCT025 BKN040
     FM051430 15005KT P6SM VCSH BKN025 OVC040
     FM051600 VRB03KT P6SM -SHRA BKN012 OVC025
     FM052000 26010KT P6SM -SHRA SCT007 BKN012 OVC025
     FM060200 29007KT P6SM VCSH BKN012 OVC025
     FM060400 VRB03KT P6SM VCSH BKN012 OVC025=



000
FTUS46 KLOX 051311 AAA
TAFSMX
TAF AMD
KSMX 051311Z 0513/0612 14004KT P6SM SCT025 BKN040
     FM051430 15005KT P6SM VCSH BKN025 OVC040
     FM051600 VRB03KT P6SM -SHRA BKN012 OVC025
     FM052000 26010KT P6SM -SHRA SCT007 BKN012 OVC025
     FM060200 29007KT P6SM VCSH BKN012 OVC025
     FM060400 VRB03KT P6SM VCSH BKN012 OVC025=



000
FTUS46 KLOX 051311 AAA
TAFSBP
TAF AMD
KSBP 051311Z 0513/0612 VRB03KT P6SM SCT025 BKN040
     FM051430 15004KT P6SM VCSH BKN025 OVC040
     FM051600 16005KT P6SM -SHRA BKN012 OVC025
     FM052000 23010KT P6SM -SHRA SCT007 BKN012 OVC025
     FM060200 29007KT P6SM VCSH BKN012 OVC025
     FM060400 VRB03KT P6SM VCSH BKN012 OVC025=



000
FTUS46 KLOX 051310 AAA
TAFPRB
TAF AMD
KPRB 051310Z 0513/0612 19005KT P6SM SCT025 BKN040
     FM051430 19008KT P6SM VCSH BKN025 OVC040
     FM051600 20010KT P6SM -SHRA SCT012 BKN025 OVC040
     FM052100 20014G22KT P6SM -SHRA BKN025 OVC040
     FM060200 20008KT P6SM VCSH BKN025 OVC040=



000
FTUS46 KLOX 051310 AAA
TAFLGB
TAF AMD
KLGB 051310Z 0513/0612 VRB03KT P6SM SCT025 OVC040
     FM051430 17006KT P6SM VCSH BKN017 OVC035
     FM051600 20008KT P6SM -SHRA BKN012 OVC025
     FM060100 23008KT P6SM VCSH BKN012 OVC025
     FM060800 13004KT P6SM VCSH BKN012 OVC025=



000
FTUS46 KLOX 051310 AAA
TAFLGB
TAF AMD
KLGB 051310Z 0513/0612 VRB03KT P6SM SCT025 OVC040
     FM051430 17006KT P6SM VCSH BKN017 OVC035
     FM051600 20008KT P6SM -SHRA BKN012 OVC025
     FM060100 23008KT P6SM VCSH BKN012 OVC025
     FM060800 13004KT P6SM VCSH BKN012 OVC025=



000
FTUS46 KLOX 051310 AAA
TAFPRB
TAF AMD
KPRB 051310Z 0513/0612 19005KT P6SM SCT025 BKN040
     FM051430 19008KT P6SM VCSH BKN025 OVC040
     FM051600 20010KT P6SM -SHRA SCT012 BKN025 OVC040
     FM052100 20014G22KT P6SM -SHRA BKN025 OVC040
     FM060200 20008KT P6SM VCSH BKN025 OVC040=



000
FTUS46 KLOX 051309 AAA
TAFSBA
TAF AMD
KSBA 051309Z 0513/0612 VRB03KT P6SM SCT025 BKN040
     FM051430 11005KT P6SM VCSH BKN025 OVC040
     FM051600 16006KT P6SM -SHRA SCT007 BKN012 OVC025
     FM052200 23008KT P6SM VCSH BKN012 OVC025
     FM060200 VRB03KT P6SM VCSH BKN012 OVC025=



000
FTUS46 KLOX 051309 AAA
TAFSBA
TAF AMD
KSBA 051309Z 0513/0612 VRB03KT P6SM SCT025 BKN040
     FM051430 11005KT P6SM VCSH BKN025 OVC040
     FM051600 16006KT P6SM -SHRA SCT007 BKN012 OVC025
     FM052200 23008KT P6SM VCSH BKN012 OVC025
     FM060200 VRB03KT P6SM VCSH BKN012 OVC025=



000
FTUS46 KLOX 051236 AAA
TAFLAX
TAF AMD
KLAX 051236Z 0513/0618 VRB03KT P6SM VCSH BKN017 OVC035
     FM051500 23010KT P6SM -SHRA BKN012 OVC025
     FM060100 26010KT P6SM VCSH BKN012 OVC025
     FM060700 12003KT P6SM VCSH BKN012 OVC025=



000
FTUS46 KLOX 051236 AAA
TAFLAX
TAF AMD
KLAX 051236Z 0513/0618 VRB03KT P6SM VCSH BKN017 OVC035
     FM051500 23010KT P6SM -SHRA BKN012 OVC025
     FM060100 26010KT P6SM VCSH BKN012 OVC025
     FM060700 12003KT P6SM VCSH BKN012 OVC025=



000
FTUS46 KLOX 051142
TAFSBP
TAF
KSBP 051142Z 0512/0612 VRB03KT P6SM SCT025 BKN040
     FM051400 15004KT P6SM VCSH BKN025 OVC040
     FM051600 16005KT P6SM -SHRA BKN012 OVC025
     FM052000 23010KT P6SM -SHRA SCT007 BKN012 OVC025
     FM060200 29007KT P6SM VCSH BKN012 OVC025
     FM060400 VRB03KT P6SM VCSH BKN012 OVC025=



000
FTUS46 KLOX 051142
TAFPRB
TAF
KPRB 051142Z 0512/0612 19005KT P6SM SCT025 BKN040
     FM051400 19008KT P6SM VCSH BKN025 OVC040
     FM051600 20010KT P6SM -SHRA SCT012 BKN025 OVC040
     FM052100 20014G22KT P6SM -SHRA BKN025 OVC040
     FM060200 20008KT P6SM VCSH BKN025 OVC040=



000
FTUS46 KLOX 051142
TAFBUR
TAF
KBUR 051142Z 0512/0612 15006KT P6SM SCT025 OVC040
     FM051500 14008KT P6SM VCSH BKN025 OVC040
     FM051700 16010KT P6SM -SHRA BKN012 OVC025
     FM052100 18012G18KT P6SM -SHRA SCT007 BKN012 OVC025
     FM060300 17005KT P6SM VCSH BKN012 OVC025=



000
FTUS46 KLOX 051142
TAFLAX
TAF
KLAX 051142Z 0512/0618 25005KT P6SM SCT025 OVC040
     FM051400 23008KT P6SM VCSH BKN025 OVC040
     FM051600 23012KT P6SM -SHRA BKN012 OVC025
     FM060100 26010KT P6SM VCSH BKN012 OVC025
     FM060700 12003KT P6SM VCSH BKN012 OVC025=



000
FTUS46 KLOX 051142
TAFSBA
TAF
KSBA 051142Z 0512/0612 VRB03KT P6SM SCT025 BKN040
     FM051300 11005KT P6SM VCSH BKN025 OVC040
     FM051500 16006KT P6SM -SHRA SCT007 BKN012 OVC025
     FM052200 23008KT P6SM VCSH BKN012 OVC025
     FM060200 VRB03KT P6SM VCSH BKN012 OVC025=



000
FTUS46 KLOX 051142
TAFWJF
TAF
KWJF 051142Z 0512/0612 25015G20KT P6SM BKN150
     FM051700 23017G25KT P6SM SCT060 BKN100
     FM052000 22023G31KT P6SM VCTS SCT025CB BKN050
     FM060200 23014G22KT P6SM SCT050 SCT080=



000
FTUS46 KLOX 051142
TAFSMX
TAF
KSMX 051142Z 0512/0612 14004KT P6SM SCT025 BKN040
     FM051400 15005KT P6SM VCSH BKN025 OVC040
     FM051600 VRB03KT P6SM -SHRA BKN012 OVC025
     FM052000 26010KT P6SM -SHRA SCT007 BKN012 OVC025
     FM060200 29007KT P6SM VCSH BKN012 OVC025
     FM060400 VRB03KT P6SM VCSH BKN012 OVC025=



000
FTUS46 KLOX 051142
TAFLGB
TAF
KLGB 051142Z 0512/0612 VRB03KT P6SM SCT025 OVC040
     FM051300 17006KT P6SM VCSH BKN025 OVC040
     FM051500 20008KT P6SM -SHRA BKN012 OVC025
     FM060100 23008KT P6SM VCSH BKN012 OVC025
     FM060800 13004KT P6SM VCSH BKN012 OVC025=



000
FTUS46 KLOX 051142
TAFVNY
TAF
KVNY 051142Z 0512/0612 VRB04KT P6SM SCT025 OVC040
     FM051500 12007KT P6SM VCSH BKN025 OVC040
     FM051700 14010KT P6SM -SHRA BKN012 OVC025
     FM052100 18012G18KT P6SM -SHRA SCT007 BKN012 OVC025
     FM060300 VRB04KT P6SM VCSH BKN012 OVC025=



000
FTUS46 KLOX 051142
TAFPMD
TAF
KPMD 051142Z 0512/0612 25012KT P6SM BKN150
     FM051800 23017G25KT P6SM SCT060 BKN100
     FM052100 23023G31KT P6SM VCTS SCT025CB BKN050
     FM060200 24014G22KT P6SM SCT050 SCT080=



000
FTUS46 KLOX 051142
TAFWJF
TAF
KWJF 051142Z 0512/0612 25015G20KT P6SM BKN150
     FM051700 23017G25KT P6SM SCT060 BKN100
     FM052000 22023G31KT P6SM VCTS SCT025CB BKN050
     FM060200 23014G22KT P6SM SCT050 SCT080=



000
FTUS46 KLOX 051142
TAFLGB
TAF
KLGB 051142Z 0512/0612 VRB03KT P6SM SCT025 OVC040
     FM051300 17006KT P6SM VCSH BKN025 OVC040
     FM051500 20008KT P6SM -SHRA BKN012 OVC025
     FM060100 23008KT P6SM VCSH BKN012 OVC025
     FM060800 13004KT P6SM VCSH BKN012 OVC025=



000
FTUS46 KLOX 051142
TAFPMD
TAF
KPMD 051142Z 0512/0612 25012KT P6SM BKN150
     FM051800 23017G25KT P6SM SCT060 BKN100
     FM052100 23023G31KT P6SM VCTS SCT025CB BKN050
     FM060200 24014G22KT P6SM SCT050 SCT080=



000
FTUS46 KLOX 051142
TAFSBP
TAF
KSBP 051142Z 0512/0612 VRB03KT P6SM SCT025 BKN040
     FM051400 15004KT P6SM VCSH BKN025 OVC040
     FM051600 16005KT P6SM -SHRA BKN012 OVC025
     FM052000 23010KT P6SM -SHRA SCT007 BKN012 OVC025
     FM060200 29007KT P6SM VCSH BKN012 OVC025
     FM060400 VRB03KT P6SM VCSH BKN012 OVC025=



000
FTUS46 KLOX 051142
TAFPRB
TAF
KPRB 051142Z 0512/0612 19005KT P6SM SCT025 BKN040
     FM051400 19008KT P6SM VCSH BKN025 OVC040
     FM051600 20010KT P6SM -SHRA SCT012 BKN025 OVC040
     FM052100 20014G22KT P6SM -SHRA BKN025 OVC040
     FM060200 20008KT P6SM VCSH BKN025 OVC040=



000
FTUS46 KLOX 051142
TAFSMX
TAF
KSMX 051142Z 0512/0612 14004KT P6SM SCT025 BKN040
     FM051400 15005KT P6SM VCSH BKN025 OVC040
     FM051600 VRB03KT P6SM -SHRA BKN012 OVC025
     FM052000 26010KT P6SM -SHRA SCT007 BKN012 OVC025
     FM060200 29007KT P6SM VCSH BKN012 OVC025
     FM060400 VRB03KT P6SM VCSH BKN012 OVC025=



000
FTUS46 KLOX 051142
TAFSBA
TAF
KSBA 051142Z 0512/0612 VRB03KT P6SM SCT025 BKN040
     FM051300 11005KT P6SM VCSH BKN025 OVC040
     FM051500 16006KT P6SM -SHRA SCT007 BKN012 OVC025
     FM052200 23008KT P6SM VCSH BKN012 OVC025
     FM060200 VRB03KT P6SM VCSH BKN012 OVC025=



000
FTUS46 KLOX 051142
TAFLAX
TAF
KLAX 051142Z 0512/0618 25005KT P6SM SCT025 OVC040
     FM051400 23008KT P6SM VCSH BKN025 OVC040
     FM051600 23012KT P6SM -SHRA BKN012 OVC025
     FM060100 26010KT P6SM VCSH BKN012 OVC025
     FM060700 12003KT P6SM VCSH BKN012 OVC025=



000
FTUS46 KLOX 051142
TAFBUR
TAF
KBUR 051142Z 0512/0612 15006KT P6SM SCT025 OVC040
     FM051500 14008KT P6SM VCSH BKN025 OVC040
     FM051700 16010KT P6SM -SHRA BKN012 OVC025
     FM052100 18012G18KT P6SM -SHRA SCT007 BKN012 OVC025
     FM060300 17005KT P6SM VCSH BKN012 OVC025=



000
FTUS46 KLOX 051142
TAFVNY
TAF
KVNY 051142Z 0512/0612 VRB04KT P6SM SCT025 OVC040
     FM051500 12007KT P6SM VCSH BKN025 OVC040
     FM051700 14010KT P6SM -SHRA BKN012 OVC025
     FM052100 18012G18KT P6SM -SHRA SCT007 BKN012 OVC025
     FM060300 VRB04KT P6SM VCSH BKN012 OVC025=



000
FTUS46 KLOX 051037 AAB
TAFWJF
TAF AMD
KWJF 051037Z 0511/0606 25015G20KT P6SM BKN150
     FM051700 23017G25KT P6SM SCT060 BKN100
     FM052200 22023G31KT P6SM VCTS SCT025CB BKN050
     FM060200 23014G22KT P6SM SCT050 SCT080=



000
FTUS46 KLOX 051037 AAC
TAFVNY
TAF AMD
KVNY 051037Z 0511/0606 19007KT P6SM SCT017 OVC035
     FM051200 14006KT 6SM -DZ BR SCT007 BKN014 OVC027
     FM051600 16010KT P6SM VCSH BKN012 OVC025
     FM052100 19010KT P6SM -SHRA BKN012 OVC025
     FM060300 15005KT P6SM -SHRA BKN012 OVC025=



000
FTUS46 KLOX 051036 AAC
TAFBUR
TAF AMD
KBUR 051036Z 0511/0606 VRB03KT P6SM SCT012 OVC025
     FM051200 15006KT 6SM -DZ BR SCT007 BKN012 OVC025
     FM051600 17010KT P6SM VCSH BKN012 OVC025
     FM052100 19010KT P6SM -SHRA BKN012 OVC025
     FM060300 16005KT P6SM -SHRA BKN012 OVC025=



000
FTUS46 KLOX 051034 AAB
TAFLGB
TAF AMD
KLGB 051034Z 0511/0606 28005KT P6SM SCT012 BKN025 OVC040
     FM051200 VRB03KT 6SM -DZ BR BKN012 OVC025
     FM051500 19008KT P6SM VCSH BKN015 OVC030
     FM051700 20010KT P6SM VCSH BKN020 OVC040
     FM052100 21012KT P6SM -SHRA BKN012 OVC025
     FM060100 23008KT P6SM -SHRA BKN012 OVC025=



000
FTUS46 KLOX 051032 AAC
TAFSMX
TAF AMD
KSMX 051032Z 0511/0606 VRB03KT P6SM SCT012 BKN025
     FM051600 17007KT P6SM -SHRA SCT007 BKN012 OVC025
     FM052300 25010KT P6SM -SHRA BKN025 OVC040
     FM060200 29007KT P6SM VCSH BKN012 OVC025=



000
FTUS46 KLOX 051031 AAB
TAFSBP
TAF AMD
KSBP 051031Z 0511/0606 VRB03KT P6SM SCT012 BKN025
     FM051600 22007KT P6SM -SHRA SCT007 BKN012 OVC025
     FM052300 25010KT P6SM -SHRA BKN025 OVC040
     FM060200 28007KT P6SM VCSH BKN012 OVC025=



000
FTUS46 KLOX 051029 AAC
TAFLAX
TAF AMD
KLAX 051029Z 0510/0612 27006KT P6SM SCT012 BKN025
     FM051130 27005KT P6SM BKN012 OVC025
     FM051400 20008KT P6SM VCSH BKN012 OVC025
     FM051700 23010KT P6SM VCSH BKN017 OVC035
     FM052000 24012KT P6SM -SHRA BKN012 OVC025
     FM060100 27008KT P6SM -SHRA BKN012 OVC025=



000
FTUS46 KLOX 050859 AAB
TAFLAX
TAF AMD
KLAX 050859Z 0509/0612 27006KT P6SM SCT017 BKN035
     FM050930 27005KT P6SM BKN012 OVC025
     FM051100 VRB03KT 4SM -DZ BR BKN007 OVC014
     FM051400 20008KT P6SM VCSH BKN012 OVC025
     FM051700 23010KT P6SM VCSH BKN017 OVC035
     FM052000 24012KT P6SM -SHRA BKN012 OVC025
     FM060100 27008KT P6SM -SHRA BKN012 OVC025=



000
FTUS46 KLOX 050859 AAB
TAFLAX
TAF AMD
KLAX 050859Z 0509/0612 27006KT P6SM SCT017 BKN035
     FM050930 27005KT P6SM BKN012 OVC025
     FM051100 VRB03KT 4SM -DZ BR BKN007 OVC014
     FM051400 20008KT P6SM VCSH BKN012 OVC025
     FM051700 23010KT P6SM VCSH BKN017 OVC035
     FM052000 24012KT P6SM -SHRA BKN012 OVC025
     FM060100 27008KT P6SM -SHRA BKN012 OVC025=



000
FTUS46 KLOX 050845 AAB
TAFVNY
TAF AMD
KVNY 050845Z 0509/0606 19007KT P6SM SCT017 OVC035
     FM051000 17007KT P6SM BKN012 OVC025
     FM051200 14006KT 4SM -DZ BKN007 OVC014
     FM051600 16010KT P6SM VCSH BKN012 OVC025
     FM052100 19010KT P6SM -SHRA BKN012 OVC025
     FM060300 15005KT P6SM -SHRA BKN012 OVC025=



000
FTUS46 KLOX 050845 AAB
TAFVNY
TAF AMD
KVNY 050845Z 0509/0606 19007KT P6SM SCT017 OVC035
     FM051000 17007KT P6SM BKN012 OVC025
     FM051200 14006KT 4SM -DZ BKN007 OVC014
     FM051600 16010KT P6SM VCSH BKN012 OVC025
     FM052100 19010KT P6SM -SHRA BKN012 OVC025
     FM060300 15005KT P6SM -SHRA BKN012 OVC025=



000
FTUS46 KLOX 050844 AAB
TAFBUR
TAF AMD
KBUR 050844Z 0509/0606 19007KT P6SM SCT012 OVC025
     FM051000 17007KT P6SM BKN012 OVC025
     FM051100 15006KT 4SM -DZ BKN007 OVC014
     FM051600 17010KT P6SM VCSH BKN012 OVC025
     FM052100 19010KT P6SM -SHRA BKN012 OVC025
     FM060300 16005KT P6SM -SHRA BKN012 OVC025=



000
FTUS46 KLOX 050840 AAB
TAFSMX
TAF AMD
KSMX 050840Z 0509/0606 VRB03KT P6SM SCT012 BKN025
     FM051000 VRB03KT P6SM VCSH BKN012 OVC025
     FM051200 15006KT P6SM -SHRA BKN012 OVC025
     FM051600 17007KT P6SM -RA SCT007 BKN012 OVC025
     FM052300 25010KT P6SM -SHRA BKN025 OVC040
     FM060200 29007KT P6SM VCSH BKN012 OVC025=



000
FTUS46 KLOX 050840 AAA
TAFSBP
TAF AMD
KSBP 050840Z 0509/0606 VRB03KT P6SM SCT012 BKN025
     FM051000 VRB03KT P6SM VCSH BKN012 OVC025
     FM051200 15006KT P6SM -SHRA BKN012 OVC025
     FM051600 22007KT 6SM -RA BR SCT007 BKN012 OVC025
     FM052300 25010KT P6SM -SHRA BKN025 OVC040
     FM060200 28007KT P6SM VCSH BKN012 OVC025=



000
FTUS46 KLOX 050840 AAB
TAFSMX
TAF AMD
KSMX 050840Z 0509/0606 VRB03KT P6SM SCT012 BKN025
     FM051000 VRB03KT P6SM VCSH BKN012 OVC025
     FM051200 15006KT P6SM -SHRA BKN012 OVC025
     FM051600 17007KT P6SM -RA SCT007 BKN012 OVC025
     FM052300 25010KT P6SM -SHRA BKN025 OVC040
     FM060200 29007KT P6SM VCSH BKN012 OVC025=



000
FTUS46 KLOX 050840 AAA
TAFSBP
TAF AMD
KSBP 050840Z 0509/0606 VRB03KT P6SM SCT012 BKN025
     FM051000 VRB03KT P6SM VCSH BKN012 OVC025
     FM051200 15006KT P6SM -SHRA BKN012 OVC025
     FM051600 22007KT 6SM -RA BR SCT007 BKN012 OVC025
     FM052300 25010KT P6SM -SHRA BKN025 OVC040
     FM060200 28007KT P6SM VCSH BKN012 OVC025=



000
FTUS46 KLOX 050839 AAA
TAFLGB
TAF AMD
KLGB 050839Z 0509/0606 28005KT P6SM SCT012 BKN025 OVC040
     FM051100 VRB03KT 4SM -DZ BR BKN009 OVC019
     FM051500 19008KT P6SM VCSH BKN015 OVC030
     FM051700 20010KT P6SM VCSH BKN020 OVC040
     FM052100 21012KT P6SM -SHRA BKN012 OVC025
     FM060100 23008KT P6SM -SHRA BKN012 OVC025=



000
FTUS46 KLOX 050839 AAA
TAFLGB
TAF AMD
KLGB 050839Z 0509/0606 28005KT P6SM SCT012 BKN025 OVC040
     FM051100 VRB03KT 4SM -DZ BR BKN009 OVC019
     FM051500 19008KT P6SM VCSH BKN015 OVC030
     FM051700 20010KT P6SM VCSH BKN020 OVC040
     FM052100 21012KT P6SM -SHRA BKN012 OVC025
     FM060100 23008KT P6SM -SHRA BKN012 OVC025=



000
FTUS46 KLOX 050838 AAA
TAFLAX
TAF AMD
KLAX 050838Z 0509/0612 28007KT P6SM SCT017 BKN035
     FM050930 27005KT P6SM BKN012 OVC025
     FM051100 VRB03KT 4SM -DZ BR BKN007 OVC014
     FM051400 20008KT P6SM VCSH BKN012 OVC025
     FM051700 23010KT P6SM VCSH BKN017 OVC035
     FM052000 24012KT P6SM -SHRA BKN012 OVC025
     FM060100 27008KT P6SM -SHRA BKN012 OVC025=



000
FTUS46 KLOX 050701 AAA
TAFWJF
TAF AMD
KWJF 050701Z 0507/0606 25015KT P6SM BKN150
     FM051700 23017G25KT P6SM SCT060 BKN100
     FM052200 22023G31KT P6SM VCTS SCT025CB BKN050
     FM060200 23014G22KT P6SM SCT050 SCT080=



000
FTUS46 KLOX 050701 AAA
TAFWJF
TAF AMD
KWJF 050701Z 0507/0606 25015KT P6SM BKN150
     FM051700 23017G25KT P6SM SCT060 BKN100
     FM052200 22023G31KT P6SM VCTS SCT025CB BKN050
     FM060200 23014G22KT P6SM SCT050 SCT080=



000
FTUS46 KLOX 050700 AAA
TAFVNY
TAF AMD
KVNY 050700Z 0507/0606 16007KT P6SM BKN012 OVC025
      TEMPO 0507/0508 SCT012 OVC025
     FM051000 14006KT 4SM -DZ BKN007 OVC014
     FM051600 16010KT P6SM VCSH BKN012 OVC025
     FM052100 19010KT P6SM -SHRA BKN012 OVC025
     FM060300 15005KT P6SM -SHRA BKN012 OVC025=



000
FTUS46 KLOX 050659 AAA
TAFBUR
TAF AMD
KBUR 050659Z 0507/0606 17007KT P6SM BKN012 OVC025
      TEMPO 0507/0508 SCT012 OVC025
     FM051000 15006KT 4SM -DZ BKN007 OVC014
     FM051600 17010KT P6SM VCSH BKN012 OVC025
     FM052100 19010KT P6SM -SHRA BKN012 OVC025
     FM060300 16005KT P6SM -SHRA BKN012 OVC025=



000
FTUS46 KLOX 050657 AAA
TAFSMX
TAF AMD
KSMX 050657Z 0507/0606 VRB03KT P6SM SCT012 BKN025
     FM050800 VRB03KT P6SM VCSH BKN012 OVC025
     FM051200 15006KT P6SM -SHRA BKN012 OVC025
     FM051600 17007KT P6SM -RA SCT007 BKN012 OVC025
     FM052300 25010KT P6SM -SHRA BKN025 OVC040
     FM060200 29007KT P6SM VCSH BKN012 OVC025=



000
FTUS46 KLOX 050656 AAA
TAFPRB
TAF AMD
KPRB 050656Z 0507/0606 VRB03KT P6SM VCSH SCT010 BKN020
     FM051200 17005KT 6SM -SHRA BR BKN010 BKN020
     FM052000 20015G25KT P6SM -SHRA BKN025 OVC040
     FM060300 19008KT P6SM VCSH BKN012 OVC025=



000
FTUS46 KLOX 050656 AAA
TAFPRB
TAF AMD
KPRB 050656Z 0507/0606 VRB03KT P6SM VCSH SCT010 BKN020
     FM051200 17005KT 6SM -SHRA BR BKN010 BKN020
     FM052000 20015G25KT P6SM -SHRA BKN025 OVC040
     FM060300 19008KT P6SM VCSH BKN012 OVC025=



000
FTUS46 KLOX 050602 CCA
TAFPMD
TAF COR
KPMD 050602Z 0506/0606 25012KT P6SM BKN150
     FM051900 23017G25KT P6SM SCT060 BKN100
     FM052200 23023G31KT P6SM VCTS SCT025CB BKN050
     FM060200 24014G22KT P6SM SCT050 SCT080=



000
FTUS46 KLOX 050602 CCA
TAFPMD
TAF COR
KPMD 050602Z 0506/0606 25012KT P6SM BKN150
     FM051900 23017G25KT P6SM SCT060 BKN100
     FM052200 23023G31KT P6SM VCTS SCT025CB BKN050
     FM060200 24014G22KT P6SM SCT050 SCT080=



000
FTUS46 KLOX 050601 CCA
TAFWJF
TAF COR
KWJF 050601Z 0506/0606 27015KT P6SM BKN150
     FM051700 23017G25KT P6SM SCT060 BKN100
     FM052200 22023G31KT P6SM VCTS SCT025CB BKN050
     FM060200 23014G22KT P6SM SCT050 SCT080=



000
FTUS46 KLOX 050601 CCA
TAFWJF
TAF COR
KWJF 050601Z 0506/0606 27015KT P6SM BKN150
     FM051700 23017G25KT P6SM SCT060 BKN100
     FM052200 22023G31KT P6SM VCTS SCT025CB BKN050
     FM060200 23014G22KT P6SM SCT050 SCT080=



000
FTUS46 KLOX 050559
TAFLGB
TAF
KLGB 050559Z 0506/0606 21006KT P6SM BKN017 OVC035
      TEMPO 0506/0507 SCT017 OVC035
     FM051100 VRB03KT 4SM -DZ BR BKN009 OVC019
     FM051500 19008KT P6SM VCSH BKN015 OVC030
     FM051700 20010KT P6SM VCSH BKN020 OVC040
     FM052100 21012KT P6SM -SHRA BKN012 OVC025
     FM060100 23008KT P6SM -SHRA BKN012 OVC025=



000
FTUS46 KLOX 050559
TAFBUR
TAF
KBUR 050559Z 0506/0606 17007KT P6SM BKN012 OVC025
      TEMPO 0506/0507 SCT012 OVC025
     FM051000 15006KT 4SM -DZ BKN007 OVC014
     FM051600 17010KT P6SM VCSH BKN012 OVC025
     FM052100 19010KT P6SM -SHRA BKN012 OVC025
     FM060300 16005KT P6SM -SHRA BKN012 OVC025=



000
FTUS46 KLOX 050559
TAFWJF
TAF
KWJF 050559Z 0506/0606 27015KT P6SM BKN150
     FM051700 23018KT P6SM SCT060 BKN100
     FM052200 24020G30KT P6SM VCTS SCT025CB BKN050=



000
FTUS46 KLOX 050559
TAFPRB
TAF
KPRB 050559Z 0506/0606 19007KT P6SM SCT040 BKN080
     FM050800 VRB03KT P6SM VCSH SCT025 BKN040
     FM051200 17005KT P6SM -SHRA BKN025 OVC040
     FM052000 20015G25KT P6SM -SHRA BKN025 OVC040
     FM060300 19008KT P6SM VCSH BKN012 OVC025=



000
FTUS46 KLOX 050559
TAFSBP
TAF
KSBP 050559Z 0506/0606 VRB03KT P6SM SCT012 BKN025
     FM050800 VRB03KT P6SM VCSH BKN012 OVC025
     FM051200 15006KT P6SM -SHRA BKN012 OVC025
     FM051600 22007KT 6SM -RA BR SCT007 BKN012 OVC025
     FM052300 25010KT P6SM -SHRA BKN025 OVC040
     FM060200 28007KT P6SM VCSH BKN012 OVC025=



000
FTUS46 KLOX 050559
TAFLAX
TAF
KLAX 050559Z 0506/0612 26007KT P6SM BKN015 OVC030
      TEMPO 0506/0507 SCT017 BKN035
     FM050900 VRB03KT 4SM -DZ BR BKN007 OVC014
     FM051400 20008KT P6SM VCSH BKN012 OVC025
     FM051700 23010KT P6SM VCSH BKN017 OVC035
     FM052000 24012KT P6SM -SHRA BKN012 OVC025
     FM060100 27008KT P6SM -SHRA BKN012 OVC025=



000
FTUS46 KLOX 050559
TAFSBA
TAF
KSBA 050559Z 0506/0606 VRB03KT P6SM SCT025 BKN040
     FM051100 11005KT P6SM VCSH BKN012 OVC025
     FM051700 18005KT P6SM -SHRA BKN012 OVC025
     FM052300 25008KT P6SM VCSH BKN012 OVC025=



000
FTUS46 KLOX 050559
TAFVNY
TAF
KVNY 050559Z 0506/0606 16007KT P6SM BKN012 OVC025
      TEMPO 0506/0507 SCT012 OVC025
     FM051000 14006KT 4SM -DZ BKN007 OVC014
     FM051600 16010KT P6SM VCSH BKN012 OVC025
     FM052100 19010KT P6SM -SHRA BKN012 OVC025
     FM060300 15005KT P6SM -SHRA BKN012 OVC025=



000
FTUS46 KLOX 050559
TAFPMD
TAF
KPMD 050559Z 0506/0606 25012KT P6SM BKN150
     FM051900 23016KT P6SM SCT060 BKN100
     FM052200 24018G28KT P6SM VCTS SCT025CB BKN050=



000
FTUS46 KLOX 050559
TAFSMX
TAF
KSMX 050559Z 0506/0606 VRB03KT P6SM SCT012 BKN025
     FM050700 VRB03KT P6SM VCSH BKN012 OVC025
     FM051200 15006KT P6SM -SHRA BKN012 OVC025
     FM051600 17007KT P6SM -RA SCT007 BKN012 OVC025
     FM052300 25010KT P6SM -SHRA BKN025 OVC040
     FM060200 29007KT P6SM VCSH BKN012 OVC025=



000
FTUS46 KLOX 050559
TAFSBA
TAF
KSBA 050559Z 0506/0606 VRB03KT P6SM SCT025 BKN040
     FM051100 11005KT P6SM VCSH BKN012 OVC025
     FM051700 18005KT P6SM -SHRA BKN012 OVC025
     FM052300 25008KT P6SM VCSH BKN012 OVC025=



000
FTUS46 KLOX 050559
TAFBUR
TAF
KBUR 050559Z 0506/0606 17007KT P6SM BKN012 OVC025
      TEMPO 0506/0507 SCT012 OVC025
     FM051000 15006KT 4SM -DZ BKN007 OVC014
     FM051600 17010KT P6SM VCSH BKN012 OVC025
     FM052100 19010KT P6SM -SHRA BKN012 OVC025
     FM060300 16005KT P6SM -SHRA BKN012 OVC025=



000
FTUS46 KLOX 050559
TAFSBP
TAF
KSBP 050559Z 0506/0606 VRB03KT P6SM SCT012 BKN025
     FM050800 VRB03KT P6SM VCSH BKN012 OVC025
     FM051200 15006KT P6SM -SHRA BKN012 OVC025
     FM051600 22007KT 6SM -RA BR SCT007 BKN012 OVC025
     FM052300 25010KT P6SM -SHRA BKN025 OVC040
     FM060200 28007KT P6SM VCSH BKN012 OVC025=



000
FTUS46 KLOX 050559
TAFLGB
TAF
KLGB 050559Z 0506/0606 21006KT P6SM BKN017 OVC035
      TEMPO 0506/0507 SCT017 OVC035
     FM051100 VRB03KT 4SM -DZ BR BKN009 OVC019
     FM051500 19008KT P6SM VCSH BKN015 OVC030
     FM051700 20010KT P6SM VCSH BKN020 OVC040
     FM052100 21012KT P6SM -SHRA BKN012 OVC025
     FM060100 23008KT P6SM -SHRA BKN012 OVC025=



000
FTUS46 KLOX 050559
TAFVNY
TAF
KVNY 050559Z 0506/0606 16007KT P6SM BKN012 OVC025
      TEMPO 0506/0507 SCT012 OVC025
     FM051000 14006KT 4SM -DZ BKN007 OVC014
     FM051600 16010KT P6SM VCSH BKN012 OVC025
     FM052100 19010KT P6SM -SHRA BKN012 OVC025
     FM060300 15005KT P6SM -SHRA BKN012 OVC025=



000
FTUS46 KLOX 050559
TAFPMD
TAF
KPMD 050559Z 0506/0606 25012KT P6SM BKN150
     FM051900 23016KT P6SM SCT060 BKN100
     FM052200 24018G28KT P6SM VCTS SCT025CB BKN050=



000
FTUS46 KLOX 050559
TAFWJF
TAF
KWJF 050559Z 0506/0606 27015KT P6SM BKN150
     FM051700 23018KT P6SM SCT060 BKN100
     FM052200 24020G30KT P6SM VCTS SCT025CB BKN050=



000
FTUS46 KLOX 050559
TAFSMX
TAF
KSMX 050559Z 0506/0606 VRB03KT P6SM SCT012 BKN025
     FM050700 VRB03KT P6SM VCSH BKN012 OVC025
     FM051200 15006KT P6SM -SHRA BKN012 OVC025
     FM051600 17007KT P6SM -RA SCT007 BKN012 OVC025
     FM052300 25010KT P6SM -SHRA BKN025 OVC040
     FM060200 29007KT P6SM VCSH BKN012 OVC025=



000
FTUS46 KLOX 050559
TAFLAX
TAF
KLAX 050559Z 0506/0612 26007KT P6SM BKN015 OVC030
      TEMPO 0506/0507 SCT017 BKN035
     FM050900 VRB03KT 4SM -DZ BR BKN007 OVC014
     FM051400 20008KT P6SM VCSH BKN012 OVC025
     FM051700 23010KT P6SM VCSH BKN017 OVC035
     FM052000 24012KT P6SM -SHRA BKN012 OVC025
     FM060100 27008KT P6SM -SHRA BKN012 OVC025=



000
FTUS46 KLOX 050559
TAFPRB
TAF
KPRB 050559Z 0506/0606 19007KT P6SM SCT040 BKN080
     FM050800 VRB03KT P6SM VCSH SCT025 BKN040
     FM051200 17005KT P6SM -SHRA BKN025 OVC040
     FM052000 20015G25KT P6SM -SHRA BKN025 OVC040
     FM060300 19008KT P6SM VCSH BKN012 OVC025=



000
FTUS46 KLOX 050447 AAC
TAFSBP
TAF AMD
KSBP 050447Z 0505/0524 VRB03KT P6SM SCT015 OVC025
     FM051800 20006KT P6SM VCSH BKN025 OVC040
     FM052100 25010KT P6SM VCSH SCT025 BKN040=



000
FTUS46 KLOX 050447 AAC
TAFSBP
TAF AMD
KSBP 050447Z 0505/0524 VRB03KT P6SM SCT015 OVC025
     FM051800 20006KT P6SM VCSH BKN025 OVC040
     FM052100 25010KT P6SM VCSH SCT025 BKN040=



000
FTUS46 KLOX 050433 AAA
TAFBUR
TAF AMD
KBUR 050433Z 0505/0524 17005KT P6SM SCT012 OVC025
     FM050600 VRB03KT P6SM BKN012 OVC025
     FM051800 13008KT P6SM SCT015 OVC025
     FM052100 17010KT P6SM BKN025 OVC040=



000
FTUS46 KLOX 050433 AAA
TAFBUR
TAF AMD
KBUR 050433Z 0505/0524 17005KT P6SM SCT012 OVC025
     FM050600 VRB03KT P6SM BKN012 OVC025
     FM051800 13008KT P6SM SCT015 OVC025
     FM052100 17010KT P6SM BKN025 OVC040=



000
FTUS46 KLOX 050420 AAB
TAFSBP
TAF AMD
KSBP 050420Z 0504/0524 VRB03KT P6SM SCT025 BKN150
     FM050600 VRB03KT P6SM SCT015 OVC025
     FM051800 20006KT P6SM VCSH BKN025 OVC040
     FM052100 25010KT P6SM VCSH SCT025 BKN040=



000
FTUS46 KLOX 050420 AAB
TAFSMX
TAF AMD
KSMX 050420Z 0504/0524 VRB03KT P6SM SCT025 OVC040
     FM050600 VRB03KT P6SM SCT015 OVC025
     FM051800 24006KT P6SM VCSH BKN025 OVC040
     FM052100 27010KT P6SM VCSH SCT025 BKN040=



000
FTUS46 KLOX 050420 AAB
TAFSBP
TAF AMD
KSBP 050420Z 0504/0524 VRB03KT P6SM SCT025 BKN150
     FM050600 VRB03KT P6SM SCT015 OVC025
     FM051800 20006KT P6SM VCSH BKN025 OVC040
     FM052100 25010KT P6SM VCSH SCT025 BKN040=



000
FTUS46 KLOX 050420 AAB
TAFSMX
TAF AMD
KSMX 050420Z 0504/0524 VRB03KT P6SM SCT025 OVC040
     FM050600 VRB03KT P6SM SCT015 OVC025
     FM051800 24006KT P6SM VCSH BKN025 OVC040
     FM052100 27010KT P6SM VCSH SCT025 BKN040=



000
FTUS46 KLOX 050337 AAA
TAFLGB
TAF AMD
KLGB 050337Z 0504/0524 VRB03KT P6SM BKN025 BKN150
     FM050800 VRB03KT P6SM SCT015 OVC025
     FM051800 20010KT P6SM BKN025 OVC050=



000
FTUS46 KLOX 050238 AAA
TAFLAX
TAF AMD
KLAX 050238Z 0503/0606 26012KT P6SM BKN015 BKN150
     FM050500 VRB03KT P6SM BKN015 OVC025
     FM051700 24007KT P6SM SCT015 OVC025
     FM052000 26012KT P6SM BKN025 OVC050
     FM060500 VRB03KT P6SM SCT025 BKN050=



000
FTUS46 KLOX 050238 AAA
TAFSMX
TAF AMD
KSMX 050238Z 0503/0524 25010KT P6SM BKN025 OVC040
     FM050500 VRB03KT P6SM SCT015 OVC025
     FM051800 24006KT P6SM VCSH BKN025 OVC040
     FM052100 27010KT P6SM VCSH SCT025 BKN040=



000
FTUS46 KLOX 050238 AAA
TAFSBP
TAF AMD
KSBP 050238Z 0503/0524 22008KT P6SM BKN025 OVC040
     FM050500 VRB03KT P6SM SCT015 OVC025
     FM051800 20006KT P6SM VCSH BKN025 OVC040
     FM052100 25010KT P6SM VCSH SCT025 BKN040=



000
FTUS46 KLOX 042330
TAFSBP
TAF
KSBP 042330Z 0500/0524 22008KT P6SM SCT025 BKN040
     FM050200 30008KT P6SM FEW025 SCT040
     FM050600 VRB03KT P6SM SCT015 OVC025
     FM051800 20006KT P6SM VCSH BKN025 OVC040
     FM052100 25010KT P6SM VCSH SCT025 BKN040=



000
FTUS46 KLOX 042330
TAFBUR
TAF
KBUR 042330Z 0500/0524 18010KT P6SM SCT150
     FM050300 VRB03KT P6SM SCT150
     FM050900 VRB03KT P6SM BKN015 OVC025
     FM051800 13008KT P6SM SCT015 OVC025
     FM052100 17010KT P6SM BKN025 OVC040=



000
FTUS46 KLOX 042330
TAFPMD
TAF
KPMD 042330Z 0500/0524 22015G25KT P6SM SCT150
     FM050300 23012KT P6SM BKN150
     FM051700 23016KT P6SM SCT060 BKN100
     FM052000 24018G28KT P6SM SCT040 BKN080=



000
FTUS46 KLOX 042330
TAFLAX
TAF
KLAX 042330Z 0500/0606 26012KT P6SM SCT025 BKN150
     FM050500 VRB03KT P6SM SCT015 BKN025
     FM050800 VRB03KT P6SM BKN015 OVC025
     FM051700 24007KT P6SM SCT015 OVC025
     FM052000 26012KT P6SM BKN025 OVC050
     FM060500 VRB03KT P6SM SCT025 BKN050=



000
FTUS46 KLOX 042330
TAFLGB
TAF
KLGB 042330Z 0500/0524 29012KT P6SM FEW025
     FM050500 VRB03KT P6SM FEW025
     FM050800 VRB03KT P6SM SCT015 OVC025
     FM051800 20010KT P6SM BKN025 OVC050=



000
FTUS46 KLOX 042330
TAFVNY
TAF
KVNY 042330Z 0500/0524 16010KT P6SM SCT150
     FM050300 VRB03KT P6SM SCT150
     FM050900 VRB03KT P6SM BKN015 OVC025
     FM051800 13008KT P6SM SCT015 OVC025
     FM052100 15010KT P6SM BKN025 OVC040=



000
FTUS46 KLOX 042330
TAFSBA
TAF
KSBA 042330Z 0500/0524 24010KT P6SM SCT025 BKN070
     FM050400 VRB03KT P6SM BKN100
     FM050800 VRB03KT P6SM BKN025 OVC100
     FM051100 VRB03KT P6SM BKN015 OVC025
     FM051800 17006KT P6SM SCT015 OVC025
     FM052100 24008KT P6SM BKN025 OVC050=



000
FTUS46 KLOX 042330
TAFSMX
TAF
KSMX 042330Z 0500/0524 25012G20KT P6SM FEW025 SCT040
     FM050200 30010KT P6SM FEW025 SCT040
     FM050600 VRB03KT P6SM SCT015 OVC025
     FM051800 24006KT P6SM VCSH BKN025 OVC040
     FM052100 27010KT P6SM VCSH SCT025 BKN040=



000
FTUS46 KLOX 042330
TAFWJF
TAF
KWJF 042330Z 0500/0524 22020G30KT P6SM SCT150
     FM050300 23015KT P6SM BKN150
     FM051700 23018KT P6SM SCT060 BKN100
     FM052000 24020G30KT P6SM SCT040 BKN080=



000
FTUS46 KLOX 042330
TAFBUR
TAF
KBUR 042330Z 0500/0524 18010KT P6SM SCT150
     FM050300 VRB03KT P6SM SCT150
     FM050900 VRB03KT P6SM BKN015 OVC025
     FM051800 13008KT P6SM SCT015 OVC025
     FM052100 17010KT P6SM BKN025 OVC040=



000
FTUS46 KLOX 042330
TAFVNY
TAF
KVNY 042330Z 0500/0524 16010KT P6SM SCT150
     FM050300 VRB03KT P6SM SCT150
     FM050900 VRB03KT P6SM BKN015 OVC025
     FM051800 13008KT P6SM SCT015 OVC025
     FM052100 15010KT P6SM BKN025 OVC040=



000
FTUS46 KLOX 042330
TAFPRB
TAF
KPRB 042330Z 0500/0524 21015G22KT P6SM BKN030 BKN150
     FM050200 21012KT P6SM SCT030 BKN150
     FM050600 VRB03KT P6SM SCT050 BKN100
     FM051200 VRB03KT P6SM SCT020 OVC050
     FM051800 20007KT P6SM VCSH BKN020 OVC040
     FM052200 22015G25KT P6SM VCSH BKN025 BKN050=



000
FTUS46 KLOX 042330
TAFSMX
TAF
KSMX 042330Z 0500/0524 25012G20KT P6SM FEW025 SCT040
     FM050200 30010KT P6SM FEW025 SCT040
     FM050600 VRB03KT P6SM SCT015 OVC025
     FM051800 24006KT P6SM VCSH BKN025 OVC040
     FM052100 27010KT P6SM VCSH SCT025 BKN040=



000
FTUS46 KLOX 042330
TAFLGB
TAF
KLGB 042330Z 0500/0524 29012KT P6SM FEW025
     FM050500 VRB03KT P6SM FEW025
     FM050800 VRB03KT P6SM SCT015 OVC025
     FM051800 20010KT P6SM BKN025 OVC050=



000
FTUS46 KLOX 042330
TAFLAX
TAF
KLAX 042330Z 0500/0606 26012KT P6SM SCT025 BKN150
     FM050500 VRB03KT P6SM SCT015 BKN025
     FM050800 VRB03KT P6SM BKN015 OVC025
     FM051700 24007KT P6SM SCT015 OVC025
     FM052000 26012KT P6SM BKN025 OVC050
     FM060500 VRB03KT P6SM SCT025 BKN050=



000
FTUS46 KLOX 042330
TAFWJF
TAF
KWJF 042330Z 0500/0524 22020G30KT P6SM SCT150
     FM050300 23015KT P6SM BKN150
     FM051700 23018KT P6SM SCT060 BKN100
     FM052000 24020G30KT P6SM SCT040 BKN080=



000
FTUS46 KLOX 042330
TAFSBA
TAF
KSBA 042330Z 0500/0524 24010KT P6SM SCT025 BKN070
     FM050400 VRB03KT P6SM BKN100
     FM050800 VRB03KT P6SM BKN025 OVC100
     FM051100 VRB03KT P6SM BKN015 OVC025
     FM051800 17006KT P6SM SCT015 OVC025
     FM052100 24008KT P6SM BKN025 OVC050=



000
FTUS46 KLOX 042330
TAFSBP
TAF
KSBP 042330Z 0500/0524 22008KT P6SM SCT025 BKN040
     FM050200 30008KT P6SM FEW025 SCT040
     FM050600 VRB03KT P6SM SCT015 OVC025
     FM051800 20006KT P6SM VCSH BKN025 OVC040
     FM052100 25010KT P6SM VCSH SCT025 BKN040=



000
FTUS46 KLOX 042330
TAFPMD
TAF
KPMD 042330Z 0500/0524 22015G25KT P6SM SCT150
     FM050300 23012KT P6SM BKN150
     FM051700 23016KT P6SM SCT060 BKN100
     FM052000 24018G28KT P6SM SCT040 BKN080=



000
FTUS46 KLOX 042330
TAFPRB
TAF
KPRB 042330Z 0500/0524 21015G22KT P6SM BKN030 BKN150
     FM050200 21012KT P6SM SCT030 BKN150
     FM050600 VRB03KT P6SM SCT050 BKN100
     FM051200 VRB03KT P6SM SCT020 OVC050
     FM051800 20007KT P6SM VCSH BKN020 OVC040
     FM052200 22015G25KT P6SM VCSH BKN025 BKN050=



000
FTUS46 KLOX 042158 AAB
TAFLAX
TAF AMD
KLAX 042158Z 0422/0524 26012KT P6SM SCT025 BKN150
     FM050400 25007KT P6SM BKN015
     FM051100 VRB04KT P6SM OVC020
     FM051600 24008KT P6SM -DZ OVC025
     FM052000 24012KT P6SM VCSH OVC025=



000
FTUS46 KLOX 042158 AAA
TAFSBP
TAF AMD
KSBP 042158Z 0422/0518 22008KT P6SM BKN025
     FM050300 30008KT P6SM OVC025
     FM050700 VRB03KT P6SM OVC025
     FM051500 14006KT P6SM VCSH OVC025=



000
FTUS46 KLOX 042158 AAD
TAFSBA
TAF AMD
KSBA 042158Z 0422/0518 17007KT P6SM SCT025 BKN100
     FM050200 26007KT P6SM OVC020
     FM050700 VRB03KT P6SM OVC025
     FM051500 VRB03KT P6SM -DZ OVC025=



000
FTUS46 KLOX 042158 AAB
TAFLAX
TAF AMD
KLAX 042158Z 0422/0524 26012KT P6SM SCT025 BKN150
     FM050400 25007KT P6SM BKN015
     FM051100 VRB04KT P6SM OVC020
     FM051600 24008KT P6SM -DZ OVC025
     FM052000 24012KT P6SM VCSH OVC025=



000
FTUS46 KLOX 042158 AAA
TAFSBP
TAF AMD
KSBP 042158Z 0422/0518 22008KT P6SM BKN025
     FM050300 30008KT P6SM OVC025
     FM050700 VRB03KT P6SM OVC025
     FM051500 14006KT P6SM VCSH OVC025=



000
FTUS46 KLOX 042158 AAD
TAFSBA
TAF AMD
KSBA 042158Z 0422/0518 17007KT P6SM SCT025 BKN100
     FM050200 26007KT P6SM OVC020
     FM050700 VRB03KT P6SM OVC025
     FM051500 VRB03KT P6SM -DZ OVC025=



000
FTUS46 KLOX 042044 AAA
TAFPMD
TAF AMD
KPMD 042044Z 0421/0518 17019G28KT P6SM SKC
     FM050200 22015G25KT P6SM BKN150
     FM050800 23012KT P6SM BKN150=



000
FTUS46 KLOX 042044 AAB
TAFSMX
TAF AMD
KSMX 042044Z 0421/0518 26010KT P6SM BKN035
     FM050000 26010KT P6SM BKN025 BKN150
     FM050300 30008KT P6SM OVC025
     FM050700 VRB03KT P6SM OVC025
     FM051500 16005KT P6SM VCSH OVC025=



000
FTUS46 KLOX 042044 AAA
TAFPMD
TAF AMD
KPMD 042044Z 0421/0518 17019G28KT P6SM SKC
     FM050200 22015G25KT P6SM BKN150
     FM050800 23012KT P6SM BKN150=



000
FTUS46 KLOX 042044 AAB
TAFSMX
TAF AMD
KSMX 042044Z 0421/0518 26010KT P6SM BKN035
     FM050000 26010KT P6SM BKN025 BKN150
     FM050300 30008KT P6SM OVC025
     FM050700 VRB03KT P6SM OVC025
     FM051500 16005KT P6SM VCSH OVC025=



000
FTUS46 KLOX 042043 AAC
TAFSBA
TAF AMD
KSBA 042043Z 0421/0518 13006KT P6SM SCT005 OVC012
     FM050200 26007KT P6SM OVC020
     FM050700 VRB03KT P6SM OVC025
     FM051500 VRB03KT P6SM -DZ OVC025=



000
FTUS46 KLOX 042039 AAB
TAFLGB
TAF AMD
KLGB 042039Z 0421/0518 19007KT P6SM SCT022 BKN150
     FM042300 29012KT P6SM SCT021 BKN150
     FM050400 VRB03KT P6SM BKN015
     FM051500 14006KT P6SM -DZ OVC020=



000
FTUS46 KLOX 042039 AAB
TAFLGB
TAF AMD
KLGB 042039Z 0421/0518 19007KT P6SM SCT022 BKN150
     FM042300 29012KT P6SM SCT021 BKN150
     FM050400 VRB03KT P6SM BKN015
     FM051500 14006KT P6SM -DZ OVC020=



000
FTUS46 KLOX 042036 AAA
TAFLAX
TAF AMD
KLAX 042036Z 0421/0524 26010KT P6SM FEW009 SCT012 BKN021
     FM050400 25007KT P6SM BKN015
     FM051100 VRB04KT P6SM OVC020
     FM051600 24008KT P6SM -DZ OVC025
     FM052000 24012KT P6SM VCSH OVC025=



000
FTUS46 KLOX 041958 AAA
TAFVNY
TAF AMD
KVNY 041958Z 0420/0518 11007KT P6SM BKN150
     FM042100 14008KT P6SM BKN150
     FM050400 VRB03KT P6SM OVC015
     FM051500 12006KT P6SM -DZ OVC020=



000
FTUS46 KLOX 041957 AAB
TAFSBA
TAF AMD
KSBA 041957Z 0420/0518 VRB04KT 6SM BR SCT005 OVC030
     FM042100 23008KT P6SM BKN030
     FM050200 26007KT P6SM OVC020
     FM050700 VRB03KT P6SM OVC025
     FM051500 VRB03KT P6SM -DZ OVC025=



000
FTUS46 KLOX 041916 AAA
TAFBUR
TAF AMD
KBUR 041916Z 0419/0518 15006KT 5SM HZ SCT015
     FM042100 18007KT P6SM SCT020
     FM050400 VRB03KT P6SM OVC015
     FM051500 13006KT P6SM -DZ OVC020=



000
FTUS46 KLOX 041910 AAA
TAFLGB
TAF AMD
KLGB 041910Z 0419/0518 12004KT P6SM OVC021
     FM042200 29012KT P6SM OVC021
     FM050400 VRB03KT P6SM BKN015
     FM051500 14006KT P6SM -DZ OVC020=



000
FTUS46 KLOX 041905 AAA
TAFSBA
TAF AMD
KSBA 041905Z 0419/0518 17004KT 2SM BR SCT005 OVC008
     FM042100 23008KT P6SM OVC015
     FM050200 26007KT P6SM OVC020
     FM050700 VRB03KT P6SM OVC025
     FM051500 VRB03KT P6SM -DZ OVC025=



000
FTUS46 KLOX 041905 AAA
TAFSBA
TAF AMD
KSBA 041905Z 0419/0518 17004KT 2SM BR SCT005 OVC008
     FM042100 23008KT P6SM OVC015
     FM050200 26007KT P6SM OVC020
     FM050700 VRB03KT P6SM OVC025
     FM051500 VRB03KT P6SM -DZ OVC025=



000
FTUS46 KLOX 041904 AAA
TAFSMX
TAF AMD
KSMX 041904Z 0419/0518 23007KT P6SM BKN024
     FM042000 26010KT P6SM BKN025 BKN150
     FM050000 26010KT P6SM BKN025 BKN150
     FM050300 30008KT P6SM OVC025
     FM050700 VRB03KT P6SM OVC025
     FM051500 16005KT P6SM VCSH OVC025=



000
FTUS46 KLOX 041904 AAA
TAFSMX
TAF AMD
KSMX 041904Z 0419/0518 23007KT P6SM BKN024
     FM042000 26010KT P6SM BKN025 BKN150
     FM050000 26010KT P6SM BKN025 BKN150
     FM050300 30008KT P6SM OVC025
     FM050700 VRB03KT P6SM OVC025
     FM051500 16005KT P6SM VCSH OVC025=



000
FTUS46 KLOX 041732
TAFPMD
TAF
KPMD 041732Z 0418/0518 09005KT P6SM SKC
     FM042000 22020G30KT P6SM OVC150
     FM050200 22015G25KT P6SM BKN150
     FM050800 23012KT P6SM BKN150=



000
FTUS46 KLOX 041732
TAFSMX
TAF
KSMX 041732Z 0418/0518 12005KT P6SM OVC015
     FM042000 26010KT P6SM BKN015 BKN150
     FM050000 26010KT P6SM BKN025 BKN150
     FM050300 30008KT P6SM OVC025
     FM050700 VRB03KT P6SM OVC025
     FM051500 16005KT P6SM VCSH OVC025=



000
FTUS46 KLOX 041732
TAFSBA
TAF
KSBA 041732Z 0418/0518 00000KT P6SM OVC008
     FM041900 23008KT P6SM OVC015
     FM050200 26007KT P6SM OVC020
     FM050700 VRB03KT P6SM OVC025
     FM051500 VRB03KT P6SM -DZ OVC025=



000
FTUS46 KLOX 041732
TAFBUR
TAF
KBUR 041732Z 0418/0518 20003KT 3SM HZ OVC009
     FM042100 18007KT P6SM BKN020
     FM050400 VRB03KT P6SM OVC015
     FM051500 13006KT P6SM -DZ OVC020=



000
FTUS46 KLOX 041732
TAFLGB
TAF
KLGB 041732Z 0418/0518 VRB03KT P6SM OVC013
     FM041900 17008KT P6SM OVC015
     FM042200 29012KT P6SM OVC021
     FM050400 VRB03KT P6SM BKN015
     FM051500 14006KT P6SM -DZ OVC020=



000
FTUS46 KLOX 041732
TAFSBP
TAF
KSBP 041732Z 0418/0518 14007KT P6SM OVC015
     FM042000 26008KT P6SM BKN015 BKN150
     FM050300 30008KT P6SM OVC025
     FM050700 VRB03KT P6SM OVC025
     FM051500 14006KT P6SM VCSH OVC025=



000
FTUS46 KLOX 041732
TAFPRB
TAF
KPRB 041732Z 0418/0518 20008KT P6SM BKN150
     FM041900 21015KT P6SM BKN150
     FM042100 21015G22KT P6SM BKN150
     FM050300 21012KT P6SM OVC040
     FM050700 23006KT P6SM OVC040
     FM051500 18006KT P6SM VCSH OVC040=



000
FTUS46 KLOX 041732
TAFLAX
TAF
KLAX 041732Z 0418/0524 26006KT 6SM BR SCT008 OVC010
     FM042100 26012KT P6SM OVC020
     FM050400 25007KT P6SM BKN015
     FM051100 VRB04KT P6SM OVC020
     FM051600 24008KT P6SM -DZ OVC025
     FM052000 24012KT P6SM VCSH OVC025=



000
FTUS46 KLOX 041732
TAFVNY
TAF
KVNY 041732Z 0418/0518 00000KT 3SM BR OVC010
     FM042100 14008KT P6SM BKN020
     FM050400 VRB03KT P6SM OVC015
     FM051500 12006KT P6SM -DZ OVC020=



000
FTUS46 KLOX 041732
TAFWJF
TAF
KWJF 041732Z 0418/0518 00000KT P6SM SKC
     FM042000 22020G30KT P6SM OVC150
     FM050400 22015G25KT P6SM BKN150
     FM050800 24014KT P6SM BKN150=



000
FTUS46 KLOX 041526 AAC
TAFBUR
TAF AMD
KBUR 041526Z 0415/0512 18006KT 4SM BR OVC006
     FM041800 15008KT P6SM OVC020
     FM042100 18010KT P6SM SCT025
     FM050400 VRB03KT P6SM OVC025=



000
FTUS46 KLOX 041526 AAC
TAFBUR
TAF AMD
KBUR 041526Z 0415/0512 18006KT 4SM BR OVC006
     FM041800 15008KT P6SM OVC020
     FM042100 18010KT P6SM SCT025
     FM050400 VRB03KT P6SM OVC025=



000
FTUS46 KLOX 041525 AAC
TAFSMX
TAF AMD
KSMX 041525Z 0415/0512 00000KT 2SM BR OVC005
     FM041700 VRB03KT P6SM OVC010
     FM042000 26010KT P6SM BKN015 BKN150
     FM050000 26010KT P6SM BKN025 BKN150
     FM050300 30008KT P6SM OVC025
     FM050700 VRB03KT P6SM OVC025=



000
FTUS46 KLOX 041525 AAC
TAFSMX
TAF AMD
KSMX 041525Z 0415/0512 00000KT 2SM BR OVC005
     FM041700 VRB03KT P6SM OVC010
     FM042000 26010KT P6SM BKN015 BKN150
     FM050000 26010KT P6SM BKN025 BKN150
     FM050300 30008KT P6SM OVC025
     FM050700 VRB03KT P6SM OVC025=



000
FTUS46 KLOX 041524 AAC
TAFLAX
TAF AMD
KLAX 041524Z 0415/0518 25006KT 4SM BR SCT006 OVC010
     FM041700 24006KT P6SM OVC012
     FM042100 26012KT P6SM OVC020
     FM050400 25007KT P6SM OVC025
     FM051100 VRB04KT P6SM OVC025
     FM051600 24008KT P6SM OVC025=



000
FTUS46 KLOX 041524 AAC
TAFLAX
TAF AMD
KLAX 041524Z 0415/0518 25006KT 4SM BR SCT006 OVC010
     FM041700 24006KT P6SM OVC012
     FM042100 26012KT P6SM OVC020
     FM050400 25007KT P6SM OVC025
     FM051100 VRB04KT P6SM OVC025
     FM051600 24008KT P6SM OVC025=



000
FTUS46 KLOX 041449 AAB
TAFLAX
TAF AMD
KLAX 041449Z 0415/0518 00000KT 4SM BR FEW006 OVC008
     FM041700 24006KT P6SM OVC012
     FM042100 26012KT P6SM OVC020
     FM050400 25007KT P6SM OVC025
     FM051100 VRB04KT P6SM OVC025
     FM051600 24008KT P6SM OVC025=



000
FTUS46 KLOX 041419 AAB
TAFSBA
TAF AMD
KSBA 041419Z 0414/0512 18004KT 1 1/2SM BR OVC005
     FM041700 17008KT P6SM OVC012
     FM041900 25010KT P6SM OVC015
     FM050200 29007KT P6SM OVC020
     FM050700 VRB03KT P6SM OVC025=



000
FTUS46 KLOX 041419 AAB
TAFSMX
TAF AMD
KSMX 041419Z 0414/0512 00000KT 2SM BR OVC006
     FM041500 VRB03KT 6SM BR OVC006
     FM041700 VRB03KT P6SM OVC010
     FM042000 26010KT P6SM BKN015 BKN150
     FM050000 26010KT P6SM BKN025 BKN150
     FM050300 30008KT P6SM OVC025
     FM050700 VRB03KT P6SM OVC025=



000
FTUS46 KLOX 041350 AAA
TAFSBP
TAF AMD
KSBP 041350Z 0414/0512 00000KT 1 1/2SM BR OVC005
     FM041700 VRB03KT P6SM OVC010
     FM042000 25010KT P6SM BKN015 BKN150
     FM050300 30008KT P6SM OVC025
     FM050700 VRB03KT P6SM OVC025=



000
FTUS46 KLOX 041350 AAA
TAFSBP
TAF AMD
KSBP 041350Z 0414/0512 00000KT 1 1/2SM BR OVC005
     FM041700 VRB03KT P6SM OVC010
     FM042000 25010KT P6SM BKN015 BKN150
     FM050300 30008KT P6SM OVC025
     FM050700 VRB03KT P6SM OVC025=



000
FTUS46 KLOX 041324 AAA
TAFVNY
TAF AMD
KVNY 041324Z 0413/0512 VRB03KT 5SM BR BKN009
     FM041700 VRB03KT P6SM OVC020
     FM042000 14008KT P6SM SCT025
     FM050400 VRB03KT P6SM OVC025=



000
FTUS46 KLOX 041324 AAA
TAFPRB
TAF AMD
KPRB 041324Z 0413/0512 VRB03KT P6SM BKN150
     FM042000 21015KT P6SM BKN150
     FM050300 21012KT P6SM OVC040
     FM050700 23006KT P6SM OVC040=



000
FTUS46 KLOX 041323 AAA
TAFLAX
TAF AMD
KLAX 041323Z 0413/0518 VRB03KT 4SM BR OVC008
     FM041700 24006KT P6SM OVC012
     FM042100 26012KT P6SM OVC020
     FM050400 25007KT P6SM OVC025
     FM051100 VRB04KT P6SM OVC025
     FM051600 24008KT P6SM OVC025=



000
FTUS46 KLOX 041323 AAB
TAFBUR
TAF AMD
KBUR 041323Z 0413/0512 VRB03KT 5SM BR OVC006
     FM041500 VRB03KT P6SM OVC012
     FM041800 15008KT P6SM OVC020
     FM042100 18010KT P6SM SCT025
     FM050400 VRB03KT P6SM OVC025=



000
FTUS46 KLOX 041322 AAA
TAFSBA
TAF AMD
KSBA 041322Z 0413/0512 VRB03KT 4SM BR OVC005
     FM041400 VRB03KT 6SM BR OVC007
     FM041700 17008KT P6SM OVC012
     FM041900 25010KT P6SM OVC015
     FM050200 29007KT P6SM OVC020
     FM050700 VRB03KT P6SM OVC025=



000
FTUS46 KLOX 041233 AAA
TAFSMX
TAF AMD
KSMX 041233Z 0413/0512 VRB03KT 6SM BR OVC004
     FM041500 VRB03KT 6SM BR OVC006
     FM041700 VRB03KT P6SM OVC010
     FM042000 26010KT P6SM BKN015 BKN150
     FM050000 26010KT P6SM BKN025 BKN150
     FM050300 30008KT P6SM OVC025
     FM050700 VRB03KT P6SM OVC025=



000
FTUS46 KLOX 041233 AAA
TAFSMX
TAF AMD
KSMX 041233Z 0413/0512 VRB03KT 6SM BR OVC004
     FM041500 VRB03KT 6SM BR OVC006
     FM041700 VRB03KT P6SM OVC010
     FM042000 26010KT P6SM BKN015 BKN150
     FM050000 26010KT P6SM BKN025 BKN150
     FM050300 30008KT P6SM OVC025
     FM050700 VRB03KT P6SM OVC025=



000
FTUS46 KLOX 041215 AAA
TAFBUR
TAF AMD
KBUR 041215Z 0412/0512 VRB03KT P6SM OVC008
     FM041500 VRB03KT P6SM OVC012
     FM041800 15008KT P6SM OVC020
     FM042100 18010KT P6SM SCT025
     FM050400 VRB03KT P6SM OVC025=



000
FTUS46 KLOX 041215 AAA
TAFBUR
TAF AMD
KBUR 041215Z 0412/0512 VRB03KT P6SM OVC008
     FM041500 VRB03KT P6SM OVC012
     FM041800 15008KT P6SM OVC020
     FM042100 18010KT P6SM SCT025
     FM050400 VRB03KT P6SM OVC025=



000
FTUS46 KLOX 041125
TAFSBP
TAF
KSBP 041125Z 0412/0512 VRB03KT 6SM BR OVC005
     FM041700 VRB03KT P6SM OVC010
     FM042000 25010KT P6SM BKN015 BKN150
     FM050300 30008KT P6SM OVC025
     FM050700 VRB03KT P6SM OVC025=



000
FTUS46 KLOX 041125
TAFWJF
TAF
KWJF 041125Z 0412/0512 VRB03KT P6SM BKN200
     FM042000 22020G30KT P6SM OVC150
     FM050400 22015G25KT P6SM BKN150
     FM050800 24014KT P6SM BKN150=



000
FTUS46 KLOX 041125
TAFSMX
TAF
KSMX 041125Z 0412/0512 VRB03KT 4SM BR OVC003
     FM041500 VRB03KT 5SM BR OVC006
     FM041700 VRB03KT P6SM OVC010
     FM042000 26010KT P6SM BKN015 BKN150
     FM050000 26010KT P6SM BKN025 BKN150
     FM050300 30008KT P6SM OVC025
     FM050700 VRB03KT P6SM OVC025=



000
FTUS46 KLOX 041125
TAFLAX
TAF
KLAX 041125Z 0412/0518 VRB03KT P6SM OVC008
     FM041700 24006KT P6SM OVC012
     FM042100 26012KT P6SM OVC020
     FM050400 25007KT P6SM OVC025
     FM051100 VRB04KT P6SM OVC025
     FM051600 24008KT P6SM OVC025=



000
FTUS46 KLOX 041125
TAFPMD
TAF
KPMD 041125Z 0412/0512 VRB05KT P6SM BKN200
     FM042000 22020G30KT P6SM OVC150
     FM050200 22015G25KT P6SM BKN150
     FM050800 23012KT P6SM BKN150=



000
FTUS46 KLOX 041125
TAFSBA
TAF
KSBA 041125Z 0412/0512 VRB03KT 5SM BR OVC003
     FM041400 VRB03KT 6SM BR OVC007
     FM041700 17008KT P6SM OVC012
     FM041900 25010KT P6SM OVC015
     FM050200 29007KT P6SM OVC020
     FM050700 VRB03KT P6SM OVC025=



000
FTUS46 KLOX 041125
TAFVNY
TAF
KVNY 041125Z 0412/0512 VRB03KT P6SM SKC
     FM041300 VRB03KT P6SM OVC015
     FM041700 VRB03KT P6SM OVC020
     FM042000 14008KT P6SM SCT025
     FM050400 VRB03KT P6SM OVC025=



000
FTUS46 KLOX 041125
TAFLGB
TAF
KLGB 041125Z 0412/0512 VRB03KT P6SM OVC011
     FM041800 19008KT P6SM OVC015
     FM042200 29012KT P6SM OVC021
     FM050400 VRB03KT P6SM OVC025
     FM051100 14006KT P6SM OVC025=



000
FTUS46 KLOX 041125
TAFPRB
TAF
KPRB 041125Z 0412/0512 VRB03KT P6SM BKN150
     FM041300 VRB03KT P6SM BKN006 BKN150
     FM041600 VRB03KT P6SM BKN150
     FM042000 21015KT P6SM BKN150
     FM050300 21012KT P6SM OVC040
     FM050700 23006KT P6SM OVC040=



000
FTUS46 KLOX 041125
TAFBUR
TAF
KBUR 041125Z 0412/0512 VRB03KT P6SM SCT012
     FM041300 VRB03KT P6SM OVC015
     FM041800 15008KT P6SM OVC022
     FM042100 18010KT P6SM SCT025
     FM050400 VRB03KT P6SM OVC025=



000
FTUS46 KLOX 041125
TAFPRB
TAF
KPRB 041125Z 0412/0512 VRB03KT P6SM BKN150
     FM041300 VRB03KT P6SM BKN006 BKN150
     FM041600 VRB03KT P6SM BKN150
     FM042000 21015KT P6SM BKN150
     FM050300 21012KT P6SM OVC040
     FM050700 23006KT P6SM OVC040=



000
FTUS46 KLOX 041125
TAFBUR
TAF
KBUR 041125Z 0412/0512 VRB03KT P6SM SCT012
     FM041300 VRB03KT P6SM OVC015
     FM041800 15008KT P6SM OVC022
     FM042100 18010KT P6SM SCT025
     FM050400 VRB03KT P6SM OVC025=



000
FTUS46 KLOX 041125
TAFPMD
TAF
KPMD 041125Z 0412/0512 VRB05KT P6SM BKN200
     FM042000 22020G30KT P6SM OVC150
     FM050200 22015G25KT P6SM BKN150
     FM050800 23012KT P6SM BKN150=



000
FTUS46 KLOX 041125
TAFSBA
TAF
KSBA 041125Z 0412/0512 VRB03KT 5SM BR OVC003
     FM041400 VRB03KT 6SM BR OVC007
     FM041700 17008KT P6SM OVC012
     FM041900 25010KT P6SM OVC015
     FM050200 29007KT P6SM OVC020
     FM050700 VRB03KT P6SM OVC025=



000
FTUS46 KLOX 041125
TAFVNY
TAF
KVNY 041125Z 0412/0512 VRB03KT P6SM SKC
     FM041300 VRB03KT P6SM OVC015
     FM041700 VRB03KT P6SM OVC020
     FM042000 14008KT P6SM SCT025
     FM050400 VRB03KT P6SM OVC025=



000
FTUS46 KLOX 041125
TAFLGB
TAF
KLGB 041125Z 0412/0512 VRB03KT P6SM OVC011
     FM041800 19008KT P6SM OVC015
     FM042200 29012KT P6SM OVC021
     FM050400 VRB03KT P6SM OVC025
     FM051100 14006KT P6SM OVC025=



000
FTUS46 KLOX 041125
TAFSBP
TAF
KSBP 041125Z 0412/0512 VRB03KT 6SM BR OVC005
     FM041700 VRB03KT P6SM OVC010
     FM042000 25010KT P6SM BKN015 BKN150
     FM050300 30008KT P6SM OVC025
     FM050700 VRB03KT P6SM OVC025=



000
FTUS46 KLOX 041125
TAFWJF
TAF
KWJF 041125Z 0412/0512 VRB03KT P6SM BKN200
     FM042000 22020G30KT P6SM OVC150
     FM050400 22015G25KT P6SM BKN150
     FM050800 24014KT P6SM BKN150=



000
FTUS46 KLOX 041125
TAFSMX
TAF
KSMX 041125Z 0412/0512 VRB03KT 4SM BR OVC003
     FM041500 VRB03KT 5SM BR OVC006
     FM041700 VRB03KT P6SM OVC010
     FM042000 26010KT P6SM BKN015 BKN150
     FM050000 26010KT P6SM BKN025 BKN150
     FM050300 30008KT P6SM OVC025
     FM050700 VRB03KT P6SM OVC025=



000
FTUS46 KLOX 041125
TAFLAX
TAF
KLAX 041125Z 0412/0518 VRB03KT P6SM OVC008
     FM041700 24006KT P6SM OVC012
     FM042100 26012KT P6SM OVC020
     FM050400 25007KT P6SM OVC025
     FM051100 VRB04KT P6SM OVC025
     FM051600 24008KT P6SM OVC025=



000
FTUS46 KLOX 041018 AAC
TAFSBA
TAF AMD
KSBA 041018Z 0410/0506 VRB03KT 5SM BR OVC003
     FM041400 VRB03KT 6SM BR OVC007
     FM041700 17008KT P6SM BKN010 BKN150
     FM041900 25010KT P6SM FEW010 BKN150
     FM050200 VRB03KT P6SM OVC025=



000
FTUS46 KLOX 041017 AAB
TAFSMX
TAF AMD
KSMX 041017Z 0410/0506 VRB03KT 4SM BR OVC003
     FM041500 VRB03KT 5SM BR OVC006
     FM041700 VRB03KT P6SM FEW010 BKN150
     FM042000 26010KT P6SM BKN150
     FM050000 26010KT P6SM BKN060
     FM050300 30008KT P6SM OVC025=



000
FTUS46 KLOX 041017 AAB
TAFSMX
TAF AMD
KSMX 041017Z 0410/0506 VRB03KT 4SM BR OVC003
     FM041500 VRB03KT 5SM BR OVC006
     FM041700 VRB03KT P6SM FEW010 BKN150
     FM042000 26010KT P6SM BKN150
     FM050000 26010KT P6SM BKN060
     FM050300 30008KT P6SM OVC025=



000
FTUS46 KLOX 041016 AAB
TAFSBP
TAF AMD
KSBP 041016Z 0410/0506 VRB03KT 6SM BR OVC005
     FM041700 VRB03KT P6SM BKN120
     FM042000 25010KT P6SM BKN060
     FM050300 30008KT P6SM OVC025=



000
FTUS46 KLOX 041016 AAB
TAFSBP
TAF AMD
KSBP 041016Z 0410/0506 VRB03KT 6SM BR OVC005
     FM041700 VRB03KT P6SM BKN120
     FM042000 25010KT P6SM BKN060
     FM050300 30008KT P6SM OVC025=



000
FTUS46 KLOX 040923 AAA
TAFLAX
TAF AMD
KLAX 040923Z 0409/0512 VRB03KT P6SM BKN008 BKN200
     FM041700 24006KT P6SM BKN010 BKN150
     FM042100 26012KT P6SM SCT010 BKN150
     FM050500 25008KT P6SM OVC015
     FM050900 25008KT P6SM OVC008=



000
FTUS46 KLOX 040923 AAA
TAFLAX
TAF AMD
KLAX 040923Z 0409/0512 VRB03KT P6SM BKN008 BKN200
     FM041700 24006KT P6SM BKN010 BKN150
     FM042100 26012KT P6SM SCT010 BKN150
     FM050500 25008KT P6SM OVC015
     FM050900 25008KT P6SM OVC008=



000
FTUS46 KLOX 040841 AAA
TAFLGB
TAF AMD
KLGB 040841Z 0409/0506 VRB03KT P6SM BKN013
     FM041100 VRB03KT P6SM OVC009
     FM041600 VRB03KT P6SM BKN010 BKN150
     FM041800 19008KT P6SM BKN150
     FM042200 29012KT P6SM BKN150
     FM050400 VRB03KT P6SM OVC015=



000
FTUS46 KLOX 040841 AAA
TAFLGB
TAF AMD
KLGB 040841Z 0409/0506 VRB03KT P6SM BKN013
     FM041100 VRB03KT P6SM OVC009
     FM041600 VRB03KT P6SM BKN010 BKN150
     FM041800 19008KT P6SM BKN150
     FM042200 29012KT P6SM BKN150
     FM050400 VRB03KT P6SM OVC015=



000
FTUS46 KLOX 040807 AAB
TAFSBA
TAF AMD
KSBA 040807Z 0408/0506 VRB03KT 6SM BR OVC004
     FM041400 VRB03KT 6SM BR OVC007
     FM041700 17008KT P6SM BKN010 BKN150
     FM041900 25010KT P6SM FEW010 BKN150
     FM050200 VRB03KT P6SM OVC025=



000
FTUS46 KLOX 040806 AAA
TAFSMX
TAF AMD
KSMX 040806Z 0408/0506 VRB03KT 5SM BR OVC006
     FM041700 VRB03KT P6SM FEW010 BKN150
     FM042000 26010KT P6SM BKN150
     FM050000 26010KT P6SM BKN060
     FM050300 30008KT P6SM OVC025=



000
FTUS46 KLOX 040806 AAA
TAFSMX
TAF AMD
KSMX 040806Z 0408/0506 VRB03KT 5SM BR OVC006
     FM041700 VRB03KT P6SM FEW010 BKN150
     FM042000 26010KT P6SM BKN150
     FM050000 26010KT P6SM BKN060
     FM050300 30008KT P6SM OVC025=



000
FTUS46 KLOX 040805 AAA
TAFSBP
TAF AMD
KSBP 040805Z 0408/0506 VRB03KT P6SM OVC006
     FM041700 VRB03KT P6SM BKN120
     FM042000 25010KT P6SM BKN060
     FM050300 30008KT P6SM OVC025=



000
FTUS46 KLOX 040612 AAA
TAFSBA
TAF AMD
KSBA 040612Z 0406/0506 VRB03KT P6SM BKN006
     FM041700 17008KT P6SM BKN010 BKN150
     FM041900 25010KT P6SM FEW010 BKN150
     FM050200 VRB03KT P6SM OVC025=



000
FTUS46 KLOX 040540 CCA
TAFLAX
TAF COR
KLAX 040540Z 0406/0512 VRB03KT P6SM SCT008 BKN200
     FM040800 VRB03KT P6SM OVC008
     FM041700 24006KT P6SM BKN010 BKN150
     FM042100 26012KT P6SM SCT010 BKN150
     FM050500 25008KT P6SM OVC015
     FM050900 25008KT P6SM OVC008=



000
FTUS46 KLOX 040539
TAFSBA
TAF
KSBA 040539Z 0406/0506 VRB03KT P6SM BKN200
     FM040900 VRB03KT 4SM BR OVC006
     FM041700 17008KT P6SM BKN010 BKN150
     FM041900 25010KT P6SM FEW010 BKN150
     FM050200 VRB03KT P6SM OVC025=



000
FTUS46 KLOX 040539
TAFWJF
TAF
KWJF 040539Z 0406/0506 VRB03KT P6SM BKN200
     FM042000 22020G30KT P6SM OVC150
     FM050400 22015G25KT P6SM BKN150=



000
FTUS46 KLOX 040539
TAFVNY
TAF
KVNY 040539Z 0406/0506 VRB03KT P6SM BKN200
     FM041200 VRB03KT 5SM BR BKN008 BKN150
     FM041700 VRB03KT P6SM BKN150
     FM042000 14008KT P6SM BKN150
     FM050400 VRB03KT P6SM OVC025=



000
FTUS46 KLOX 040539
TAFPRB
TAF
KPRB 040539Z 0406/0506 VRB03KT P6SM BKN150
     FM041300 VRB03KT P6SM BKN006 BKN150
     FM041600 VRB03KT P6SM BKN150
     FM042000 21015KT P6SM BKN150
     FM050300 21012KT P6SM OVC040=



000
FTUS46 KLOX 040539
TAFBUR
TAF
KBUR 040539Z 0406/0506 VRB03KT P6SM BKN200
     FM041200 VRB03KT 5SM BR BKN008 BKN150
     FM041700 VRB03KT P6SM BKN150
     FM042000 17008KT P6SM BKN150
     FM050400 VRB03KT P6SM OVC025=



000
FTUS46 KLOX 040539
TAFPMD
TAF
KPMD 040539Z 0406/0506 VRB03KT P6SM BKN200
     FM042000 22020G30KT P6SM OVC150
     FM050200 22015G25KT P6SM BKN150=



000
FTUS46 KLOX 040539
TAFSMX
TAF
KSMX 040539Z 0406/0506 VRB03KT P6SM OVC006
     FM041700 VRB03KT P6SM FEW010 BKN150
     FM042000 26010KT P6SM BKN150
     FM050000 26010KT P6SM BKN060
     FM050300 30008KT P6SM OVC025=



000
FTUS46 KLOX 040539
TAFLGB
TAF
KLGB 040539Z 0406/0506 VRB03KT P6SM BKN200
     FM040900 VRB03KT P6SM OVC008
     FM041600 VRB03KT P6SM BKN010 BKN150
     FM041800 19008KT P6SM BKN150
     FM042200 29012KT P6SM BKN150
     FM050400 VRB03KT P6SM OVC015=



000
FTUS46 KLOX 040539
TAFLAX
TAF
KLAX 040539Z 0406/0512 VRB03KT P6SM OVC008
     FM041700 24006KT P6SM BKN010 BKN150
     FM042100 26012KT P6SM SCT010 BKN150
     FM050500 25008KT P6SM OVC015
     FM050900 25008KT P6SM OVC008=



000
FTUS46 KLOX 040539
TAFLAX
TAF
KLAX 040539Z 0406/0512 VRB03KT P6SM OVC008
     FM041700 24006KT P6SM BKN010 BKN150
     FM042100 26012KT P6SM SCT010 BKN150
     FM050500 25008KT P6SM OVC015
     FM050900 25008KT P6SM OVC008=



000
FTUS46 KLOX 040539
TAFSMX
TAF
KSMX 040539Z 0406/0506 VRB03KT P6SM OVC006
     FM041700 VRB03KT P6SM FEW010 BKN150
     FM042000 26010KT P6SM BKN150
     FM050000 26010KT P6SM BKN060
     FM050300 30008KT P6SM OVC025=



000
FTUS46 KLOX 040539
TAFBUR
TAF
KBUR 040539Z 0406/0506 VRB03KT P6SM BKN200
     FM041200 VRB03KT 5SM BR BKN008 BKN150
     FM041700 VRB03KT P6SM BKN150
     FM042000 17008KT P6SM BKN150
     FM050400 VRB03KT P6SM OVC025=



000
FTUS46 KLOX 040539
TAFPMD
TAF
KPMD 040539Z 0406/0506 VRB03KT P6SM BKN200
     FM042000 22020G30KT P6SM OVC150
     FM050200 22015G25KT P6SM BKN150=



000
FTUS46 KLOX 040539
TAFWJF
TAF
KWJF 040539Z 0406/0506 VRB03KT P6SM BKN200
     FM042000 22020G30KT P6SM OVC150
     FM050400 22015G25KT P6SM BKN150=



000
FTUS46 KLOX 040539
TAFVNY
TAF
KVNY 040539Z 0406/0506 VRB03KT P6SM BKN200
     FM041200 VRB03KT 5SM BR BKN008 BKN150
     FM041700 VRB03KT P6SM BKN150
     FM042000 14008KT P6SM BKN150
     FM050400 VRB03KT P6SM OVC025=



000
FTUS46 KLOX 040539
TAFSBA
TAF
KSBA 040539Z 0406/0506 VRB03KT P6SM BKN200
     FM040900 VRB03KT 4SM BR OVC006
     FM041700 17008KT P6SM BKN010 BKN150
     FM041900 25010KT P6SM FEW010 BKN150
     FM050200 VRB03KT P6SM OVC025=



000
FTUS46 KLOX 040539
TAFLGB
TAF
KLGB 040539Z 0406/0506 VRB03KT P6SM BKN200
     FM040900 VRB03KT P6SM OVC008
     FM041600 VRB03KT P6SM BKN010 BKN150
     FM041800 19008KT P6SM BKN150
     FM042200 29012KT P6SM BKN150
     FM050400 VRB03KT P6SM OVC015=



000
FTUS46 KLOX 040539
TAFSBP
TAF
KSBP 040539Z 0406/0506 VRB03KT P6SM BKN200
     FM041000 VRB03KT P6SM OVC008
     FM041700 VRB03KT P6SM BKN120
     FM042000 25010KT P6SM BKN060
     FM050300 30008KT P6SM OVC025=



000
FTUS46 KLOX 040539
TAFPRB
TAF
KPRB 040539Z 0406/0506 VRB03KT P6SM BKN150
     FM041300 VRB03KT P6SM BKN006 BKN150
     FM041600 VRB03KT P6SM BKN150
     FM042000 21015KT P6SM BKN150
     FM050300 21012KT P6SM OVC040=



000
FTUS46 KLOX 040539
TAFSBP
TAF
KSBP 040539Z 0406/0506 VRB03KT P6SM BKN200
     FM041000 VRB03KT P6SM OVC008
     FM041700 VRB03KT P6SM BKN120
     FM042000 25010KT P6SM BKN060
     FM050300 30008KT P6SM OVC025=



000
FTUS46 KLOX 040250 AAA
TAFLAX
TAF AMD
KLAX 040250Z 0403/0506 26012KT P6SM OVC008
     FM040500 VRB03KT P6SM OVC008
     FM041700 24007KT P6SM BKN010 BKN150
     FM041900 26014KT P6SM SCT010 BKN150
     FM050500 VRB03KT P6SM OVC015=



000
FTUS46 KLOX 040212 AAA
TAFSMX
TAF AMD
KSMX 040212Z 0402/0424 32008KT P6SM BKN010
     FM040400 VRB03KT P6SM OVC006
     FM041700 VRB03KT P6SM FEW010 BKN150
     FM042000 26010KT P6SM BKN150=



000
FTUS46 KLOX 032344 CCA
TAFLAX
TAF COR
KLAX 032344Z 0400/0506 26012KT P6SM BKN008 BKN150
     FM040400 VRB03KT P6SM OVC008
     FM041700 24007KT P6SM BKN010 BKN150
     FM041900 26014KT P6SM SCT010 BKN150
     FM050500 VRB03KT P6SM OVC015=



000
FTUS46 KLOX 032320
TAFSMX
TAF
KSMX 032320Z 0400/0424 32014KT P6SM BKN200
     FM040400 VRB03KT P6SM OVC006
     FM041700 VRB03KT P6SM FEW010 BKN150
     FM042000 26010KT P6SM BKN150=



000
FTUS46 KLOX 032320
TAFSBA
TAF
KSBA 032320Z 0400/0424 25012KT P6SM BKN200
     FM040300 VRB03KT P6SM BKN200
     FM040900 VRB03KT 4SM BR OVC006
     FM041700 17008KT P6SM BKN010 BKN150
     FM041900 25010KT P6SM FEW010 BKN150=



000
FTUS46 KLOX 032320
TAFWJF
TAF
KWJF 032320Z 0400/0424 24012KT P6SM BKN200
     FM040500 VRB03KT P6SM BKN200
     FM042000 24010KT P6SM BKN150
     FM042300 24018KT P6SM BKN150=



000
FTUS46 KLOX 032320
TAFPMD
TAF
KPMD 032320Z 0400/0424 24008KT P6SM BKN200
     FM040500 VRB03KT P6SM BKN200
     FM042000 24010KT P6SM BKN150
     FM042300 24015KT P6SM BKN150=



000
FTUS46 KLOX 032320
TAFLGB
TAF
KLGB 032320Z 0400/0424 29012KT P6SM BKN200
     FM040400 VRB03KT P6SM BKN200
     FM040900 VRB03KT P6SM OVC008
     FM041600 VRB03KT P6SM BKN010 BKN150
     FM041800 19008KT P6SM BKN150
     FM042200 29012KT P6SM BKN150=



000
FTUS46 KLOX 032320
TAFVNY
TAF
KVNY 032320Z 0400/0424 15008KT P6SM BKN200
     FM040200 VRB03KT P6SM BKN200
     FM041200 VRB03KT 5SM BR FEW006 BKN150
     FM041700 VRB03KT P6SM BKN150
     FM042000 14008KT P6SM BKN150=



000
FTUS46 KLOX 032320
TAFSBA
TAF
KSBA 032320Z 0400/0424 25012KT P6SM BKN200
     FM040300 VRB03KT P6SM BKN200
     FM040900 VRB03KT 4SM BR OVC006
     FM041700 17008KT P6SM BKN010 BKN150
     FM041900 25010KT P6SM FEW010 BKN150=



000
FTUS46 KLOX 032320
TAFBUR
TAF
KBUR 032320Z 0400/0424 17008KT P6SM BKN200
     FM040300 VRB03KT P6SM BKN200
     FM041200 VRB03KT 5SM BR FEW006 BKN150
     FM041700 VRB03KT P6SM BKN150
     FM042000 17008KT P6SM BKN150=



000
FTUS46 KLOX 032320
TAFPRB
TAF
KPRB 032320Z 0400/0424 21014G22KT P6SM BKN200
     FM040400 30008KT P6SM BKN200
     FM040700 VRB03KT P6SM BKN150
     FM041300 VRB03KT P6SM BKN006 BKN150
     FM041600 VRB03KT P6SM BKN150
     FM042000 21010KT P6SM BKN150
     FM042200 21018KT P6SM BKN150=



000
FTUS46 KLOX 032320
TAFVNY
TAF
KVNY 032320Z 0400/0424 15008KT P6SM BKN200
     FM040200 VRB03KT P6SM BKN200
     FM041200 VRB03KT 5SM BR FEW006 BKN150
     FM041700 VRB03KT P6SM BKN150
     FM042000 14008KT P6SM BKN150=



000
FTUS46 KLOX 032320
TAFPMD
TAF
KPMD 032320Z 0400/0424 24008KT P6SM BKN200
     FM040500 VRB03KT P6SM BKN200
     FM042000 24010KT P6SM BKN150
     FM042300 24015KT P6SM BKN150=



000
FTUS46 KLOX 032320
TAFLGB
TAF
KLGB 032320Z 0400/0424 29012KT P6SM BKN200
     FM040400 VRB03KT P6SM BKN200
     FM040900 VRB03KT P6SM OVC008
     FM041600 VRB03KT P6SM BKN010 BKN150
     FM041800 19008KT P6SM BKN150
     FM042200 29012KT P6SM BKN150=



000
FTUS46 KLOX 032320
TAFSBP
TAF
KSBP 032320Z 0400/0424 32012KT P6SM BKN200
     FM040500 VRB03KT P6SM BKN200
     FM040800 VRB03KT P6SM OVC008
     FM041700 VRB03KT P6SM BKN150
     FM042000 25010KT P6SM BKN150=



000
FTUS46 KLOX 032320
TAFPRB
TAF
KPRB 032320Z 0400/0424 21014G22KT P6SM BKN200
     FM040400 30008KT P6SM BKN200
     FM040700 VRB03KT P6SM BKN150
     FM041300 VRB03KT P6SM BKN006 BKN150
     FM041600 VRB03KT P6SM BKN150
     FM042000 21010KT P6SM BKN150
     FM042200 21018KT P6SM BKN150=



000
FTUS46 KLOX 032320
TAFBUR
TAF
KBUR 032320Z 0400/0424 17008KT P6SM BKN200
     FM040300 VRB03KT P6SM BKN200
     FM041200 VRB03KT 5SM BR FEW006 BKN150
     FM041700 VRB03KT P6SM BKN150
     FM042000 17008KT P6SM BKN150=



000
FTUS46 KLOX 032320
TAFSMX
TAF
KSMX 032320Z 0400/0424 32014KT P6SM BKN200
     FM040400 VRB03KT P6SM OVC006
     FM041700 VRB03KT P6SM FEW010 BKN150
     FM042000 26010KT P6SM BKN150=



000
FTUS46 KLOX 032320
TAFLAX
TAF
KLAX 032320Z 0400/0506 26012KT P6SM FEW009 BKN150
     FM040400 VRB03KT P6SM SCT008 BKN150
     FM040600 VRB03KT 5SM BR OVC008
     FM041700 24007KT P6SM BKN010 BKN150
     FM041900 26014KT P6SM SCT010 BKN150
     FM050500 VRB03KT P6SM OVC015=



000
FTUS46 KLOX 032320
TAFSBP
TAF
KSBP 032320Z 0400/0424 32012KT P6SM BKN200
     FM040500 VRB03KT P6SM BKN200
     FM040800 VRB03KT P6SM OVC008
     FM041700 VRB03KT P6SM BKN150
     FM042000 25010KT P6SM BKN150=



000
FTUS46 KLOX 032320
TAFWJF
TAF
KWJF 032320Z 0400/0424 24012KT P6SM BKN200
     FM040500 VRB03KT P6SM BKN200
     FM042000 24010KT P6SM BKN150
     FM042300 24018KT P6SM BKN150=



000
FTUS46 KLOX 032320
TAFLAX
TAF
KLAX 032320Z 0400/0506 26012KT P6SM FEW009 BKN150
     FM040400 VRB03KT P6SM SCT008 BKN150
     FM040600 VRB03KT 5SM BR OVC008
     FM041700 24007KT P6SM BKN010 BKN150
     FM041900 26014KT P6SM SCT010 BKN150
     FM050500 VRB03KT P6SM OVC015=



000
FTUS46 KLOX 032122 AAB
TAFWJF
TAF AMD
KWJF 032122Z 0321/0418 13005KT P6SM SKC
     FM032300 23010KT P6SM SCT200
     FM040500 21007KT P6SM SCT200=



000
FTUS46 KLOX 032122 AAB
TAFWJF
TAF AMD
KWJF 032122Z 0321/0418 13005KT P6SM SKC
     FM032300 23010KT P6SM SCT200
     FM040500 21007KT P6SM SCT200=



000
FTUS46 KLOX 032102 AAA
TAFLAX
TAF AMD
KLAX 032102Z 0321/0424 24015KT P6SM FEW009 BKN140
     FM040500 VRB03KT P6SM BKN015
     FM041300 05005KT P6SM OVC020
     FM041700 22007KT P6SM OVC020
     FM042000 26012KT P6SM SCT020=



000
FTUS46 KLOX 032007 AAA
TAFWJF
TAF AMD
KWJF 032007Z 0320/0418 07015KT P6SM SKC
     FM032300 23010KT P6SM SCT200
     FM040500 21007KT P6SM SCT200=



000
FTUS46 KLOX 031859 AAA
TAFPMD
TAF AMD
KPMD 031859Z 0319/0418 07015KT P6SM SKC
     FM032200 VRB03KT P6SM SCT200
     FM040400 23007KT P6SM SCT200=



000
FTUS46 KLOX 031859 AAA
TAFPMD
TAF AMD
KPMD 031859Z 0319/0418 07015KT P6SM SKC
     FM032200 VRB03KT P6SM SCT200
     FM040400 23007KT P6SM SCT200=



000
FTUS46 KLOX 031741
TAFLGB
TAF
KLGB 031741Z 0318/0418 00000KT P6SM SKC
     FM032200 29012KT P6SM BKN200
     FM040400 VRB03KT P6SM BKN200
     FM040800 VRB04KT P6SM OVC015=



000
FTUS46 KLOX 031741
TAFSBP
TAF
KSBP 031741Z 0318/0418 00000KT P6SM SCT007
     FM032000 30012KT P6SM BKN200
     FM040500 VRB03KT P6SM BKN200
     FM040900 VRB03KT P6SM OVC015=



000
FTUS46 KLOX 031741
TAFSBA
TAF
KSBA 031741Z 0318/0418 22007KT P6SM SKC
     FM031900 24012KT P6SM BKN200
     FM040300 VRB03KT P6SM BKN200
     FM040800 09005KT P6SM OVC015=



000
FTUS46 KLOX 031741
TAFPRB
TAF
KPRB 031741Z 0318/0418 00000KT P6SM SKC
     FM032000 21010KT P6SM BKN200
     FM032200 21015G25KT P6SM BKN200
     FM040300 29008KT P6SM BKN200
     FM040700 VRB03KT P6SM BKN150
     FM041000 VRB03KT P6SM BKN010 BKN150=



000
FTUS46 KLOX 031741
TAFSMX
TAF
KSMX 031741Z 0318/0418 VRB03KT 6SM BR SCT006
     FM032000 31012KT P6SM BKN200
     FM040400 VRB03KT P6SM BKN200
     FM040800 VRB03KT P6SM OVC015=



000
FTUS46 KLOX 031741
TAFBUR
TAF
KBUR 031741Z 0318/0418 00000KT P6SM SKC
     FM032000 17008KT P6SM BKN200
     FM040400 VRB03KT P6SM BKN200
     FM041200 VRB03KT 5SM BR BKN010=



000
FTUS46 KLOX 031741
TAFLAX
TAF
KLAX 031741Z 0318/0424 24004KT 6SM HZ FEW017 SCT025
     FM031900 26007KT P6SM BKN200
     FM032100 27012KT P6SM BKN200
     FM040500 VRB03KT P6SM BKN015
     FM041300 05005KT P6SM OVC020
     FM041700 22007KT P6SM OVC020
     FM042000 26012KT P6SM SCT020=



000
FTUS46 KLOX 031741
TAFWJF
TAF
KWJF 031741Z 0318/0418 04005KT P6SM SKC
     FM032100 23015KT P6SM SCT200
     FM040500 24010KT P6SM SCT200=



000
FTUS46 KLOX 031741
TAFVNY
TAF
KVNY 031741Z 0318/0418 00000KT P6SM SKC
     FM032000 15008KT P6SM BKN200
     FM040200 VRB03KT P6SM BKN200
     FM041000 VRB03KT 4SM BR SCT010=



000
FTUS46 KLOX 031741
TAFPMD
TAF
KPMD 031741Z 0318/0418 36003KT P6SM SKC
     FM032200 24012KT P6SM SCT200
     FM040400 21007KT P6SM SCT200=



000
FTUS46 KLOX 031741
TAFLGB
TAF
KLGB 031741Z 0318/0418 00000KT P6SM SKC
     FM032200 29012KT P6SM BKN200
     FM040400 VRB03KT P6SM BKN200
     FM040800 VRB04KT P6SM OVC015=



000
FTUS46 KLOX 031741
TAFPRB
TAF
KPRB 031741Z 0318/0418 00000KT P6SM SKC
     FM032000 21010KT P6SM BKN200
     FM032200 21015G25KT P6SM BKN200
     FM040300 29008KT P6SM BKN200
     FM040700 VRB03KT P6SM BKN150
     FM041000 VRB03KT P6SM BKN010 BKN150=



000
FTUS46 KLOX 031741
TAFPMD
TAF
KPMD 031741Z 0318/0418 36003KT P6SM SKC
     FM032200 24012KT P6SM SCT200
     FM040400 21007KT P6SM SCT200=



000
FTUS46 KLOX 031741
TAFSMX
TAF
KSMX 031741Z 0318/0418 VRB03KT 6SM BR SCT006
     FM032000 31012KT P6SM BKN200
     FM040400 VRB03KT P6SM BKN200
     FM040800 VRB03KT P6SM OVC015=



000
FTUS46 KLOX 031741
TAFBUR
TAF
KBUR 031741Z 0318/0418 00000KT P6SM SKC
     FM032000 17008KT P6SM BKN200
     FM040400 VRB03KT P6SM BKN200
     FM041200 VRB03KT 5SM BR BKN010=



000
FTUS46 KLOX 031741
TAFSBP
TAF
KSBP 031741Z 0318/0418 00000KT P6SM SCT007
     FM032000 30012KT P6SM BKN200
     FM040500 VRB03KT P6SM BKN200
     FM040900 VRB03KT P6SM OVC015=



000
FTUS46 KLOX 031741
TAFWJF
TAF
KWJF 031741Z 0318/0418 04005KT P6SM SKC
     FM032100 23015KT P6SM SCT200
     FM040500 24010KT P6SM SCT200=



000
FTUS46 KLOX 031741
TAFLAX
TAF
KLAX 031741Z 0318/0424 24004KT 6SM HZ FEW017 SCT025
     FM031900 26007KT P6SM BKN200
     FM032100 27012KT P6SM BKN200
     FM040500 VRB03KT P6SM BKN015
     FM041300 05005KT P6SM OVC020
     FM041700 22007KT P6SM OVC020
     FM042000 26012KT P6SM SCT020=



000
FTUS46 KLOX 031741
TAFVNY
TAF
KVNY 031741Z 0318/0418 00000KT P6SM SKC
     FM032000 15008KT P6SM BKN200
     FM040200 VRB03KT P6SM BKN200
     FM041000 VRB03KT 4SM BR SCT010=



000
FTUS46 KLOX 031741
TAFSBA
TAF
KSBA 031741Z 0318/0418 22007KT P6SM SKC
     FM031900 24012KT P6SM BKN200
     FM040300 VRB03KT P6SM BKN200
     FM040800 09005KT P6SM OVC015=



000
FTUS46 KLOX 031649 AAC
TAFSBP
TAF AMD
KSBP 031649Z 0317/0412 00000KT P6SM SCT007
     FM032000 30012KT P6SM BKN200
     FM040500 VRB03KT P6SM BKN200
     FM040900 VRB03KT P6SM OVC015=



000
FTUS46 KLOX 031649 AAC
TAFSBP
TAF AMD
KSBP 031649Z 0317/0412 00000KT P6SM SCT007
     FM032000 30012KT P6SM BKN200
     FM040500 VRB03KT P6SM BKN200
     FM040900 VRB03KT P6SM OVC015=



000
FTUS46 KLOX 031648 AAE
TAFSMX
TAF AMD
KSMX 031648Z 0317/0412 VRB03KT 6SM BR SCT006
     FM031800 31007KT P6SM BKN008
     FM032000 31012KT P6SM BKN200
     FM040400 VRB03KT P6SM BKN200
     FM040800 VRB03KT P6SM OVC015=



000
FTUS46 KLOX 031648 AAE
TAFSMX
TAF AMD
KSMX 031648Z 0317/0412 VRB03KT 6SM BR SCT006
     FM031800 31007KT P6SM BKN008
     FM032000 31012KT P6SM BKN200
     FM040400 VRB03KT P6SM BKN200
     FM040800 VRB03KT P6SM OVC015=



000
FTUS46 KLOX 031554 AAC
TAFPRB
TAF AMD
KPRB 031554Z 0316/0412 00000KT P6SM FEW003
     FM031700 VRB03KT P6SM BKN200
     FM032000 21010KT P6SM BKN200
     FM032200 21014G22KT P6SM BKN200
     FM040200 20008KT P6SM BKN200
     FM040700 VRB03KT P6SM BKN150
     FM041000 VRB03KT P6SM BKN020 BKN150=



000
FTUS46 KLOX 031518 AAD
TAFSMX
TAF AMD
KSMX 031518Z 0315/0412 00000KT 1/4SM FG VV002
     FM031600 VRB03KT 5SM BR OVC004
     FM031800 31007KT P6SM BKN008
     FM032000 31012KT P6SM BKN200
     FM040400 VRB03KT P6SM BKN200
     FM040800 VRB03KT P6SM OVC015=



000
FTUS46 KLOX 031451 AAA
TAFLAX
TAF AMD
KLAX 031451Z 0315/0418 24003KT 6SM BR FEW040
     FM031900 26007KT P6SM BKN200
     FM032100 27012KT P6SM BKN200
     FM040500 VRB03KT P6SM BKN200
     FM040800 VRB03KT P6SM BKN015
     FM041300 05005KT P6SM OVC020
     FM041700 22007KT P6SM OVC020=



000
FTUS46 KLOX 031430 AAB
TAFPRB
TAF AMD
KPRB 031430Z 0314/0412 00000KT P6SM BKN002
     FM031700 VRB03KT P6SM BKN200
     FM032000 21010KT P6SM BKN200
     FM032200 21014G22KT P6SM BKN200
     FM040200 20008KT P6SM BKN200
     FM040700 VRB03KT P6SM BKN150
     FM041000 VRB03KT P6SM BKN020 BKN150=



000
FTUS46 KLOX 031430 AAB
TAFPRB
TAF AMD
KPRB 031430Z 0314/0412 00000KT P6SM BKN002
     FM031700 VRB03KT P6SM BKN200
     FM032000 21010KT P6SM BKN200
     FM032200 21014G22KT P6SM BKN200
     FM040200 20008KT P6SM BKN200
     FM040700 VRB03KT P6SM BKN150
     FM041000 VRB03KT P6SM BKN020 BKN150=



000
FTUS46 KLOX 031335 AAB
TAFSBP
TAF AMD
KSBP 031335Z 0314/0412 30006KT 2SM BR OVC003
     FM031600 29005KT P6SM BKN008
     FM032000 30012KT P6SM BKN200
     FM040500 VRB03KT P6SM BKN200
     FM040900 VRB03KT P6SM OVC015=



000
FTUS46 KLOX 031334 AAC
TAFSMX
TAF AMD
KSMX 031334Z 0314/0412 00000KT 1/4SM FG VV002
     FM031500 VRB03KT 5SM BR OVC004
     FM031800 31007KT P6SM BKN008
     FM032000 31012KT P6SM BKN200
     FM040400 VRB03KT P6SM BKN200
     FM040800 VRB03KT P6SM OVC015=



000
FTUS46 KLOX 031306 AAA
TAFPRB
TAF AMD
KPRB 031306Z 0313/0412 VRB03KT P6SM BKN200
     FM032000 21010KT P6SM BKN200
     FM032200 21014G22KT P6SM BKN200
     FM040200 20008KT P6SM BKN200
     FM040700 VRB03KT P6SM BKN150
     FM041000 VRB03KT P6SM BKN020 BKN150=



000
FTUS46 KLOX 031306 AAB
TAFSMX
TAF AMD
KSMX 031306Z 0313/0412 VRB03KT 1SM BR OVC002
     FM031500 VRB03KT 5SM BR OVC004
     FM031800 31007KT P6SM BKN008
     FM032000 31012KT P6SM BKN200
     FM040400 VRB03KT P6SM BKN200
     FM040800 VRB03KT P6SM OVC015=



000
FTUS46 KLOX 031306 AAB
TAFSBA
TAF AMD
KSBA 031306Z 0313/0412 VRB03KT P6SM SCT005
     FM031700 17007KT P6SM SCT200
     FM031900 24012KT P6SM BKN200
     FM040300 VRB03KT P6SM BKN200
     FM041000 09005KT P6SM OVC015=



000
FTUS46 KLOX 031218 AAA
TAFSMX
TAF AMD
KSMX 031218Z 0312/0412 VRB03KT 6SM BR OVC003
     FM031400 VRB03KT 6SM BR OVC005
     FM031800 31007KT P6SM BKN008
     FM032000 31012KT P6SM BKN200
     FM040400 VRB03KT P6SM BKN200
     FM040800 VRB03KT P6SM OVC015=



000
FTUS46 KLOX 031218 AAA
TAFSMX
TAF AMD
KSMX 031218Z 0312/0412 VRB03KT 6SM BR OVC003
     FM031400 VRB03KT 6SM BR OVC005
     FM031800 31007KT P6SM BKN008
     FM032000 31012KT P6SM BKN200
     FM040400 VRB03KT P6SM BKN200
     FM040800 VRB03KT P6SM OVC015=



000
FTUS46 KLOX 031217 AAA
TAFSBP
TAF AMD
KSBP 031217Z 0312/0412 VRB03KT P6SM OVC004
     FM031700 29005KT P6SM BKN008
     FM032000 30012KT P6SM BKN200
     FM040500 VRB03KT P6SM BKN200
     FM040900 VRB03KT P6SM OVC015=



000
FTUS46 KLOX 031217 AAA
TAFSBP
TAF AMD
KSBP 031217Z 0312/0412 VRB03KT P6SM OVC004
     FM031700 29005KT P6SM BKN008
     FM032000 30012KT P6SM BKN200
     FM040500 VRB03KT P6SM BKN200
     FM040900 VRB03KT P6SM OVC015=



000
FTUS46 KLOX 031213 AAA
TAFSBA
TAF AMD
KSBA 031213Z 0312/0412 VRB03KT 6SM BR BKN004
     FM031700 17007KT P6SM SCT200
     FM031900 24012KT P6SM BKN200
     FM040300 VRB03KT P6SM BKN200
     FM041000 09005KT P6SM OVC015=



000
FTUS46 KLOX 031124 CCA
TAFPRB
TAF COR
KPRB 031124Z 0312/0412 VRB03KT P6SM BKN200
     FM031300 VRB03KT P6SM BKN008 BKN200
     FM031700 VRB03KT P6SM BKN200
     FM032000 21010KT P6SM BKN200
     FM032200 21014G22KT P6SM BKN200
     FM040200 20008KT P6SM BKN200
     FM040700 VRB03KT P6SM BKN150
     FM041000 VRB03KT P6SM BKN020 BKN150=



000
FTUS46 KLOX 031122
TAFLAX
TAF
KLAX 031122Z 0312/0418 VRB03KT P6SM SKC
     FM031900 26007KT P6SM BKN200
     FM032100 27012KT P6SM BKN200
     FM040500 VRB03KT P6SM BKN200
     FM040800 VRB03KT P6SM BKN015
     FM041300 05005KT P6SM OVC020
     FM041700 22007KT P6SM OVC020=



000
FTUS46 KLOX 031122
TAFPRB
TAF
KPRB 031122Z 0312/0412 VRB03KT P6SM BKN007 BKN200
     FM031700 VRB03KT P6SM BKN200
     FM032000 21010KT P6SM BKN200
     FM032200 21014G22KT P6SM BKN200
     FM040200 20008KT P6SM BKN200
     FM040700 VRB03KT P6SM BKN150
     FM041000 VRB03KT P6SM BKN020 BKN150=



000
FTUS46 KLOX 031122
TAFSBP
TAF
KSBP 031122Z 0312/0412 31006KT P6SM OVC005
     FM031700 29005KT P6SM BKN008
     FM032000 30012KT P6SM BKN200
     FM040500 VRB03KT P6SM BKN200
     FM040900 VRB03KT P6SM OVC015=



000
FTUS46 KLOX 031122
TAFSBA
TAF
KSBA 031122Z 0312/0412 VRB03KT P6SM SCT200
     FM031700 17007KT P6SM SCT200
     FM031900 24012KT P6SM BKN200
     FM040300 VRB03KT P6SM BKN200
     FM041000 09005KT P6SM OVC015=



000
FTUS46 KLOX 031122
TAFVNY
TAF
KVNY 031122Z 0312/0412 VRB03KT P6SM SCT200
     FM032000 15008KT P6SM BKN200
     FM040200 VRB03KT P6SM BKN200
     FM041000 VRB03KT P6SM BKN012=



000
FTUS46 KLOX 031122
TAFPMD
TAF
KPMD 031122Z 0312/0412 21008KT P6SM SKC
     FM031400 VRB03KT P6SM SCT200
     FM032200 24012KT P6SM SCT200
     FM040400 21007KT P6SM SCT200=



000
FTUS46 KLOX 031122
TAFSMX
TAF
KSMX 031122Z 0312/0412 VRB03KT P6SM OVC005
     FM031300 VRB03KT 5SM BR OVC004
     FM031800 31007KT P6SM BKN008
     FM032000 31012KT P6SM BKN200
     FM040400 VRB03KT P6SM BKN200
     FM040800 VRB03KT P6SM OVC015=



000
FTUS46 KLOX 031122
TAFBUR
TAF
KBUR 031122Z 0312/0412 VRB03KT P6SM SKC
     FM032000 17008KT P6SM BKN200
     FM040400 VRB03KT P6SM BKN200
     FM041000 VRB03KT P6SM BKN012=



000
FTUS46 KLOX 031122
TAFWJF
TAF
KWJF 031122Z 0312/0412 VRB03KT P6SM SKC
     FM032100 23015KT P6SM SCT200
     FM040500 24010KT P6SM SCT200=



000
FTUS46 KLOX 031122
TAFLGB
TAF
KLGB 031122Z 0312/0412 VRB03KT P6SM SKC
     FM031800 19008KT P6SM SCT200
     FM032200 29012KT P6SM BKN200
     FM040400 VRB03KT P6SM BKN200
     FM040800 VRB04KT P6SM OVC015=



000
FTUS46 KLOX 031057 AAD
TAFSMX
TAF AMD
KSMX 031057Z 0311/0406 VRB03KT P6SM OVC005
     FM031300 VRB03KT 5SM BR OVC004
     FM031800 31007KT P6SM BKN008
     FM032000 31012KT P6SM BKN250
     FM040400 VRB03KT P6SM BKN150=



000
FTUS46 KLOX 031025 AAA
TAFPRB
TAF AMD
KPRB 031025Z 0310/0406 VRB03KT P6SM BKN200
     FM031200 VRB03KT P6SM BKN007 BKN150
     FM031700 VRB03KT P6SM BKN150
     FM032000 21010KT P6SM BKN150
     FM032200 21014G22KT P6SM BKN250
     FM040200 20008KT P6SM BKN250=



000
FTUS46 KLOX 031002 AAB
TAFSBP
TAF AMD
KSBP 031002Z 0310/0406 31006KT P6SM OVC005
     FM031700 29005KT P6SM BKN008
     FM032000 30012KT P6SM BKN250
     FM040500 VRB03KT P6SM BKN150=



000
FTUS46 KLOX 031001 AAA
TAFSBA
TAF AMD
KSBA 031001Z 0310/0406 VRB03KT P6SM SCT250
     FM031700 17007KT P6SM SCT250
     FM031900 24012KT P6SM BKN250
     FM040300 VRB03KT P6SM BKN150=



000
FTUS46 KLOX 031001 AAC
TAFSMX
TAF AMD
KSMX 031001Z 0310/0406 VRB03KT P6SM SKC
     FM031100 VRB03KT 5SM BR OVC004
     FM031800 31007KT P6SM BKN008
     FM032000 31012KT P6SM BKN250
     FM040400 VRB03KT P6SM BKN150=



000
FTUS46 KLOX 030937 AAA
TAFLGB
TAF AMD
KLGB 030937Z 0310/0406 VRB03KT P6SM SCT250
     FM031200 VRB03KT P6SM BKN008
     FM031800 19008KT P6SM SCT250
     FM032200 29012KT P6SM SCT250
     FM040400 VRB03KT P6SM BKN250=



000
FTUS46 KLOX 030936 AAB
TAFLAX
TAF AMD
KLAX 030936Z 0310/0412 VRB03KT P6SM SCT250
     FM031900 26007KT P6SM BKN250
     FM032100 27012KT P6SM BKN250
     FM040500 VRB03KT P6SM BKN250
     FM040900 VRB03KT P6SM BKN010=



000
FTUS46 KLOX 030917 AAB
TAFSMX
TAF AMD
KSMX 030917Z 0309/0406 VRB03KT P6SM SKC
     FM031000 VRB03KT 5SM BR OVC004
     FM031800 31007KT P6SM BKN008
     FM032000 31012KT P6SM BKN250
     FM040400 VRB03KT P6SM BKN150=



000
FTUS46 KLOX 030910 AAA
TAFSBP
TAF AMD
KSBP 030910Z 0309/0406 VRB03KT P6SM OVC005
     FM031000 VRB03KT 5SM BR OVC004
     FM031700 29005KT P6SM BKN008
     FM032000 30012KT P6SM BKN250
     FM040500 VRB03KT P6SM BKN150=



000
FTUS46 KLOX 030853 AAA
TAFLAX
TAF AMD
KLAX 030853Z 0309/0412 VRB03KT P6SM SCT250
     FM031200 VRB03KT 5SM BR BKN008
     FM031900 26007KT P6SM SCT010 BKN250
     FM032100 27012KT P6SM BKN250
     FM040500 VRB03KT P6SM BKN250
     FM040900 VRB03KT P6SM BKN010=



000
FTUS46 KLOX 030853 AAA
TAFLAX
TAF AMD
KLAX 030853Z 0309/0412 VRB03KT P6SM SCT250
     FM031200 VRB03KT 5SM BR BKN008
     FM031900 26007KT P6SM SCT010 BKN250
     FM032100 27012KT P6SM BKN250
     FM040500 VRB03KT P6SM BKN250
     FM040900 VRB03KT P6SM BKN010=



000
FTUS46 KLOX 030655 AAA
TAFSMX
TAF AMD
KSMX 030655Z 0307/0406 VRB03KT P6SM SKC
     FM030900 VRB03KT P6SM OVC008
     FM031800 31007KT P6SM BKN010
     FM032000 31012KT P6SM BKN250
     FM040400 VRB03KT P6SM BKN150=



000
FTUS46 KLOX 030522
TAFPRB
TAF
KPRB 030522Z 0306/0406 VRB03KT P6SM BKN150
     FM032000 21010KT P6SM BKN150
     FM032200 21014G22KT P6SM BKN250
     FM040200 20008KT P6SM BKN250=



000
FTUS46 KLOX 030522
TAFSMX
TAF
KSMX 030522Z 0306/0406 VRB03KT P6SM OVC008
     FM031800 31007KT P6SM BKN010
     FM032000 31012KT P6SM BKN250
     FM040400 VRB03KT P6SM BKN150=



000
FTUS46 KLOX 030522
TAFSBA
TAF
KSBA 030522Z 0306/0406 VRB03KT P6SM SCT250
     FM031200 VRB03KT 5SM BR OVC007
     FM031700 17007KT P6SM BKN008
     FM031900 24012KT P6SM FEW010 BKN250
     FM040300 VRB03KT P6SM BKN150=



000
FTUS46 KLOX 030522
TAFSBP
TAF
KSBP 030522Z 0306/0406 VRB03KT P6SM BKN150
     FM030800 VRB03KT P6SM OVC006
     FM031700 29005KT P6SM BKN010
     FM032000 30012KT P6SM BKN250
     FM040500 VRB03KT P6SM BKN150=



000
FTUS46 KLOX 030522
TAFBUR
TAF
KBUR 030522Z 0306/0406 VRB03KT P6SM SCT250
     FM032000 17008KT P6SM BKN250
     FM040400 VRB03KT P6SM BKN250=



000
FTUS46 KLOX 030522
TAFWJF
TAF
KWJF 030522Z 0306/0406 24008KT P6SM SCT250
     FM030800 VRB03KT P6SM SCT250
     FM032200 23015KT P6SM BKN250=



000
FTUS46 KLOX 030522
TAFLGB
TAF
KLGB 030522Z 0306/0406 VRB03KT P6SM SCT250
     FM031100 VRB03KT P6SM OVC008
     FM031800 19008KT P6SM SCT250
     FM032200 29012KT P6SM SCT250
     FM040400 VRB03KT P6SM BKN250=



000
FTUS46 KLOX 030522
TAFPMD
TAF
KPMD 030522Z 0306/0406 21008KT P6SM SCT250
     FM031400 VRB03KT P6SM SCT250
     FM032200 24012KT P6SM BKN250=



000
FTUS46 KLOX 030522
TAFVNY
TAF
KVNY 030522Z 0306/0406 VRB03KT P6SM SCT250
     FM032000 15008KT P6SM BKN250
     FM040200 VRB03KT P6SM BKN250=



000
FTUS46 KLOX 030522
TAFLAX
TAF
KLAX 030522Z 0306/0412 VRB03KT P6SM SCT250
     FM031200 VRB03KT 5SM BR OVC008
     FM031900 26007KT P6SM SCT010 BKN250
     FM032100 27012KT P6SM BKN250
     FM040500 VRB03KT P6SM BKN250
     FM040900 VRB03KT P6SM BKN010=



000
FTUS46 KLOX 030436 AAB
TAFSBP
TAF AMD
KSBP 030436Z 0305/0324 30010KT P6SM BKN100
     FM030700 VRB03KT P6SM OVC006
     FM031700 29005KT P6SM BKN010
     FM032000 30012KT P6SM SCT250=



000
FTUS46 KLOX 030251 AAA
TAFSBP
TAF AMD
KSBP 030251Z 0303/0324 30012KT P6SM BKN010
     FM030400 VRB03KT P6SM OVC006
     FM031700 29005KT P6SM BKN010
     FM032000 30012KT P6SM SCT250=



000
FTUS46 KLOX 030250 AAA
TAFLAX
TAF AMD
KLAX 030250Z 0303/0406 27010KT P6SM SCT250
     FM030900 VRB03KT 5SM BR OVC008
     FM031900 26007KT P6SM SCT010
     FM032100 27012KT P6SM SCT250
     FM040500 VRB03KT P6SM BKN250=



000
FTUS46 KLOX 022322
TAFVNY
TAF
KVNY 022322Z 0300/0324 15008KT P6SM SKC
     FM030300 VRB03KT P6SM SKC
     FM032000 15008KT P6SM SCT250=



000
FTUS46 KLOX 022322
TAFLGB
TAF
KLGB 022322Z 0300/0324 29012KT P6SM SKC
     FM030400 VRB03KT P6SM SCT250
     FM030900 VRB03KT P6SM OVC008
     FM031800 19008KT P6SM SCT250
     FM032200 29012KT P6SM SCT250=



000
FTUS46 KLOX 022322
TAFSMX
TAF
KSMX 022322Z 0300/0324 32012KT P6SM SCT250
     FM030300 VRB03KT P6SM OVC006
     FM030600 VRB03KT 5SM BR OVC004
     FM031800 31007KT P6SM BKN008
     FM032000 31012KT P6SM SCT250=



000
FTUS46 KLOX 022322
TAFWJF
TAF
KWJF 022322Z 0300/0324 26010KT P6SM BKN080
     FM030400 VRB03KT P6SM SKC
     FM032200 23010KT P6SM SCT250=



000
FTUS46 KLOX 022322
TAFPMD
TAF
KPMD 022322Z 0300/0324 24010KT P6SM BKN080
     FM030400 VRB03KT P6SM SKC
     FM032200 22010KT P6SM SCT250=



000
FTUS46 KLOX 022322
TAFBUR
TAF
KBUR 022322Z 0300/0324 17008KT P6SM SKC
     FM030300 VRB03KT P6SM SKC
     FM032000 17008KT P6SM SCT250=



000
FTUS46 KLOX 022322
TAFWJF
TAF
KWJF 022322Z 0300/0324 26010KT P6SM BKN080
     FM030400 VRB03KT P6SM SKC
     FM032200 23010KT P6SM SCT250=



000
FTUS46 KLOX 022322
TAFBUR
TAF
KBUR 022322Z 0300/0324 17008KT P6SM SKC
     FM030300 VRB03KT P6SM SKC
     FM032000 17008KT P6SM SCT250=



000
FTUS46 KLOX 022322
TAFPRB
TAF
KPRB 022322Z 0300/0324 20014KT P6SM SKC
     FM030400 VRB03KT P6SM SCT250
     FM032000 21012KT P6SM BKN250=



000
FTUS46 KLOX 022322
TAFLGB
TAF
KLGB 022322Z 0300/0324 29012KT P6SM SKC
     FM030400 VRB03KT P6SM SCT250
     FM030900 VRB03KT P6SM OVC008
     FM031800 19008KT P6SM SCT250
     FM032200 29012KT P6SM SCT250=



000
FTUS46 KLOX 022322
TAFSBA
TAF
KSBA 022322Z 0300/0324 26012KT P6SM SKC
     FM030300 VRB03KT P6SM SCT250
     FM031000 VRB03KT 5SM BR OVC007
     FM031700 17007KT P6SM BKN008
     FM031900 24012KT P6SM FEW010=



000
FTUS46 KLOX 022322
TAFLAX
TAF
KLAX 022322Z 0300/0406 27014KT P6SM SKC
     FM030200 27008KT P6SM SCT250
     FM030900 VRB03KT 5SM BR OVC008
     FM031900 26007KT P6SM SCT010
     FM032100 27012KT P6SM SCT250
     FM040500 VRB03KT P6SM BKN250=



000
FTUS46 KLOX 022322
TAFSBP
TAF
KSBP 022322Z 0300/0324 30012KT P6SM SKC
     FM030400 VRB03KT P6SM SCT250
     FM030700 VRB03KT P6SM OVC006
     FM031700 29005KT P6SM BKN010
     FM032000 30012KT P6SM SCT250=



000
FTUS46 KLOX 022322
TAFPMD
TAF
KPMD 022322Z 0300/0324 24010KT P6SM BKN080
     FM030400 VRB03KT P6SM SKC
     FM032200 22010KT P6SM SCT250=



000
FTUS46 KLOX 022322
TAFSMX
TAF
KSMX 022322Z 0300/0324 32012KT P6SM SCT250
     FM030300 VRB03KT P6SM OVC006
     FM030600 VRB03KT 5SM BR OVC004
     FM031800 31007KT P6SM BKN008
     FM032000 31012KT P6SM SCT250=



000
FTUS46 KLOX 022322
TAFLAX
TAF
KLAX 022322Z 0300/0406 27014KT P6SM SKC
     FM030200 27008KT P6SM SCT250
     FM030900 VRB03KT 5SM BR OVC008
     FM031900 26007KT P6SM SCT010
     FM032100 27012KT P6SM SCT250
     FM040500 VRB03KT P6SM BKN250=



000
FTUS46 KLOX 022322
TAFSBA
TAF
KSBA 022322Z 0300/0324 26012KT P6SM SKC
     FM030300 VRB03KT P6SM SCT250
     FM031000 VRB03KT 5SM BR OVC007
     FM031700 17007KT P6SM BKN008
     FM031900 24012KT P6SM FEW010=



000
FTUS46 KLOX 022322
TAFPRB
TAF
KPRB 022322Z 0300/0324 20014KT P6SM SKC
     FM030400 VRB03KT P6SM SCT250
     FM032000 21012KT P6SM BKN250=



000
FTUS46 KLOX 022322
TAFVNY
TAF
KVNY 022322Z 0300/0324 15008KT P6SM SKC
     FM030300 VRB03KT P6SM SKC
     FM032000 15008KT P6SM SCT250=



000
FTUS46 KLOX 022322
TAFSBP
TAF
KSBP 022322Z 0300/0324 30012KT P6SM SKC
     FM030400 VRB03KT P6SM SCT250
     FM030700 VRB03KT P6SM OVC006
     FM031700 29005KT P6SM BKN010
     FM032000 30012KT P6SM SCT250=



000
FTUS46 KLOX 022119 AAB
TAFLAX
TAF AMD
KLAX 022119Z 0221/0324 27014KT P6SM FEW010 SCT045
     FM030400 26007KT P6SM SCT015 BKN250
     FM030600 VRB03KT P6SM OVC010
     FM031500 VRB03KT P6SM OVC015
     FM031900 26010KT P6SM SCT020=



000
FTUS46 KLOX 022119 AAB
TAFLAX
TAF AMD
KLAX 022119Z 0221/0324 27014KT P6SM FEW010 SCT045
     FM030400 26007KT P6SM SCT015 BKN250
     FM030600 VRB03KT P6SM OVC010
     FM031500 VRB03KT P6SM OVC015
     FM031900 26010KT P6SM SCT020=



000
FTUS46 KLOX 022116 AAA
TAFWJF
TAF AMD
KWJF 022116Z 0221/0318 03012KT P6SM FEW090 SCT110
     FM030000 25010KT P6SM SCT250
     FM030900 VRB03KT P6SM SKC=



000
FTUS46 KLOX 022115 AAA
TAFPMD
TAF AMD
KPMD 022115Z 0221/0318 06010G17KT P6SM SKC
     FM030000 26008KT P6SM SCT250
     FM030900 VRB03KT P6SM SKC=



000
FTUS46 KLOX 022115 AAA
TAFPMD
TAF AMD
KPMD 022115Z 0221/0318 06010G17KT P6SM SKC
     FM030000 26008KT P6SM SCT250
     FM030900 VRB03KT P6SM SKC=



    US Dept of Commerce
    National Oceanic and Atmospheric Administration
    National Weather Service
    1325 East West Highway
    Silver Spring, MD 20910
    Page Author: NWS Internet Services Team
Disclaimer
Information Quality
Credits
Glossary
Privacy Policy
Freedom of Information Act (FOIA)
About Us
Career Opportunities